# Fri May 02 08:36:57 PDT 2008
#
# DATABASE
# jdbc:jtds:sqlserver://solstice.shore.mbari.org:1433/VARS
#
# QUERY
# SELECT ObservationID_FK,  Associations,  CameraDirection,  ConceptName,  Depth,  DiveNumber,  HighdefTimeCode,  Image,  Latitude,  Longitude,  Oxygen,  RecordedDate,  RovName,  Salinity,  TapeTimeCode,  Temperature,  videoArchiveName FROM Annotations WHERE   DiveNumber >= 3173 AND   DiveNumber <= 3173 AND   RovName LIKE '%Ventana%' 
#
# TOTAL RECORDS: 471
Associations	CameraDirection	ConceptName	Depth	DiveNumber	HighdefTimeCode	Image	Latitude	Longitude	ObservationID_FK	Oxygen	RecordedDate	RovName	Salinity	TapeTimeCode	Temperature	class	family	genus	infraclass	kingdom	order	phylum	species	subclass	subphylum	superclass	superkingdom	superorder	videoArchiveName
population-density | self | dense	descend	Chrysaora fuscescens	23.87	3173	00:10:53:18	 	36.853737	-121.85747	20024225	3.72	2008-02-14 17:10:31.0	Ventana	33.738	00:10:39:23	10.139	Scyphozoa	Pelagiidae	Chrysaora		Animalia	Semaeostomeae	Cnidaria	Chrysaora fuscescens				Eukaryota		V3173-01
contains | ripples | nil	cruise	sand	30.49	3173	00:13:30:13	 	36.853752	-121.85751	2494232	3.2	2008-02-14 17:13:08.0	Ventana	33.812	00:13:16:15	9.884														V3173-01
population-quantity | self | 999, comment | self | clumps of diopatra	cruise	Polychaeta	30.3	3173	00:13:44:13	 	36.853756	-121.85752	2494233	3.2	2008-02-14 17:13:22.0	Ventana	33.812	00:13:30:09	9.884	Polychaeta				Animalia		Annelida					Eukaryota		V3173-01
contains | ripples | nil	cruise	sand	30.63	3173	00:14:16:12	 	36.853767	-121.85755	2494234	3.19	2008-02-14 17:13:54.0	Ventana	33.814	00:14:03:21	9.882														V3173-01
perspective | self | close-up	cruise	Chrysaora fuscescens	30.84	3173	00:14:34:11	http://search.mbari.org/ARCHIVE/frameGrabs/Ventana/images/3173/00_14_21_03.jpg	36.853775	-121.85757	2494236	3.19	2008-02-14 17:14:12.0	Ventana	33.813	00:14:21:03	9.884	Scyphozoa	Pelagiidae	Chrysaora		Animalia	Semaeostomeae	Cnidaria	Chrysaora fuscescens				Eukaryota		V3173-01
contains | ripples | nil	cruise	sand	30.18	3173	00:15:22:25	 	36.853806	-121.857635	2494237	3.21	2008-02-14 17:15:00.0	Ventana	33.809	00:15:08:16	9.893														V3173-01
population-quantity | self | 999, comment | self | clumps of diopatra	cruise	Polychaeta	30.64	3173	00:15:30:25	 	36.85381	-121.85765	2494238	3.2	2008-02-14 17:15:08.0	Ventana	33.812	00:15:16:25	9.887	Polychaeta				Animalia		Annelida					Eukaryota		V3173-01
contains | ripples | nil	cruise	sand	30.15	3173	00:16:16:24	 	36.853844	-121.857735	2494239	3.19	2008-02-14 17:15:55.0	Ventana	33.812	00:16:03:00	9.884														V3173-01
population-quantity | self | 999, comment | self | clumps of diopatra	cruise	Polychaeta	29.63	3173	00:16:27:08	 	36.85385	-121.85776	2494240	3.19	2008-02-14 17:16:05.0	Ventana	33.812	00:16:13:16	9.884	Polychaeta				Animalia		Annelida					Eukaryota		V3173-01
population-quantity | self | 999, comment | self | clumps of diopatra	cruise	Polychaeta	30.11	3173	00:16:55:07	 	36.853874	-121.85782	2494241	3.19	2008-02-14 17:16:33.0	Ventana	33.814	00:16:41:26	9.879	Polychaeta				Animalia		Annelida					Eukaryota		V3173-01
contains | ripples | nil	cruise	sand	30.68	3173	00:17:01:07	 	36.853874	-121.85782	2494242	3.19	2008-02-14 17:16:39.0	Ventana	33.812	00:16:48:09	9.885														V3173-01
population-quantity | self | 999, comment | self | clumps of diopatra	cruise	Polychaeta	29.76	3173	00:17:39:06	 	36.853806	-121.85767	2494243	3.2	2008-02-14 17:17:17.0	Ventana	33.812	00:17:26:15	9.887	Polychaeta				Animalia		Annelida					Eukaryota		V3173-01
contains | ripples | nil	cruise	sand	30.37	3173	00:17:45:20	 	36.853794	-121.85765	2494244	3.19	2008-02-14 17:17:23.0	Ventana	33.811	00:17:31:18	9.885														V3173-01
contains | ripples | nil	cruise	sand	30.0	3173	00:19:01:18	 	36.85363	-121.857216	2494245	3.2	2008-02-14 17:18:40.0	Ventana	33.808	00:18:48:02	9.888														V3173-01
population-quantity | self | 999, comment | self | clumps of diopatra	cruise	Polychaeta	30.09	3173	00:19:19:18	 	36.85358	-121.8571	2494246	3.19	2008-02-14 17:18:58.0	Ventana	33.809	00:19:05:15	9.885	Polychaeta				Animalia		Annelida					Eukaryota		V3173-01
contains | ripples | nil	cruise	sand	29.99	3173	00:20:00:01	 	36.853443	-121.85683	2494247	3.21	2008-02-14 17:19:38.0	Ventana	33.807	00:19:45:22	9.891														V3173-01
population-quantity | self | 999, comment | self | clumps of diopatra	cruise	Polychaeta	29.98	3173	00:20:06:01	 	36.853424	-121.85679	2494248	3.21	2008-02-14 17:19:44.0	Ventana	33.807	00:19:52:00	9.891	Polychaeta				Animalia		Annelida					Eukaryota		V3173-01
population-quantity | self | 999, comment | self | clumps of diopatra	cruise	Polychaeta	29.96	3173	00:20:52:00	 	36.853287	-121.85652	2494249	3.04	2008-02-14 17:20:30.0	Ventana	33.809	00:20:38:05	9.889	Polychaeta				Animalia		Annelida					Eukaryota		V3173-01
contains | ripples | nil	cruise	sand	29.88	3173	00:20:58:14	 	36.85327	-121.85649	2494250	3.04	2008-02-14 17:20:36.0	Ventana	33.809	00:20:45:10	9.889														V3173-01
population-quantity | self | 999, comment | self | clumps of diopatra	cruise	Polychaeta	29.88	3173	00:21:36:13	 	36.853176	-121.85631	2494251	3.21	2008-02-14 17:21:15.0	Ventana	33.807	00:21:23:08	9.892	Polychaeta				Animalia		Annelida					Eukaryota		V3173-01
contains | ripples | nil	cruise	sand	29.67	3173	00:21:44:13	 	36.85316	-121.85628	2494252	3.21	2008-02-14 17:21:23.0	Ventana	33.808	00:21:30:08	9.892														V3173-01
contains | ripples | nil	cruise	sand	29.71	3173	00:22:04:13	http://search.mbari.org/ARCHIVE/frameGrabs/Ventana/images/3173/00_21_50_23.jpg	36.853123	-121.85621	2494254	3.21	2008-02-14 17:21:43.0	Ventana	33.809	00:21:50:23	9.891														V3173-01
population-quantity | self | 999, comment | self | clumps of diopatra	cruise	Polychaeta	29.71	3173	00:22:04:13	http://search.mbari.org/ARCHIVE/frameGrabs/Ventana/images/3173/00_21_50_23.jpg	36.853123	-121.85621	2494255	3.21	2008-02-14 17:21:43.0	Ventana	33.809	00:21:50:23	9.891	Polychaeta				Animalia		Annelida					Eukaryota		V3173-01
population-quantity | self | 999, comment | self | clumps of diopatra	cruise	Polychaeta	29.84	3173	00:22:30:11	 	36.853077	-121.85613	2494256	3.22	2008-02-14 17:22:09.0	Ventana	33.806	00:22:17:00	9.893	Polychaeta				Animalia		Annelida					Eukaryota		V3173-01
contains | ripples | nil	cruise	sand	29.58	3173	00:22:40:26	 	36.853065	-121.85611	2494257	3.22	2008-02-14 17:22:19.0	Ventana	33.806	00:22:27:11	9.893														V3173-01
population-quantity | self | 999, comment | self | clumps of diopatra	cruise	Polychaeta	29.61	3173	00:23:08:25	 	36.85298	-121.85599	2494258	3.23	2008-02-14 17:22:47.0	Ventana	33.806	00:22:55:07	9.898	Polychaeta				Animalia		Annelida					Eukaryota		V3173-01
contains | ripples | nil	cruise	sand	29.33	3173	00:23:14:25	 	36.85298	-121.85599	2494259	3.23	2008-02-14 17:22:53.0	Ventana	33.805	00:23:01:01	9.899														V3173-01
population-quantity | self | 999, comment | self | clumps of diopatra	cruise	Polychaeta	29.58	3173	00:23:48:24	 	36.852962	-121.855934	2494260	3.22	2008-02-14 17:23:27.0	Ventana	33.806	00:23:35:11	9.896	Polychaeta				Animalia		Annelida					Eukaryota		V3173-01
contains | ripples | nil	cruise	sand	29.31	3173	00:23:54:24	 	36.852955	-121.85591	2494261	3.22	2008-02-14 17:23:33.0	Ventana	33.806	00:23:40:29	9.896														V3173-01
identity-reference | self | 1	cruise	Platichthys stellatus	29.06	3173	00:24:15:08	http://search.mbari.org/ARCHIVE/frameGrabs/Ventana/images/3173/00_24_02_00.jpg	36.852913	-121.85582	2494262	3.22	2008-02-14 17:23:53.0	Ventana	33.805	00:24:02:00	9.899	Osteichthyes	Pleuronectidae	Platichthys	Neopterygii	Animalia	Pleuronectiformes	Chordata	Platichthys stellatus	Actinopterygii	Vertebrata	Gnathostomata	Eukaryota	Acanthopterygii	V3173-01
identity-reference | self | 1	cruise	Platichthys stellatus	29.06	3173	00:24:25:08	 	36.852886	-121.85577	2494263	3.22	2008-02-14 17:24:03.0	Ventana	33.805	00:24:11:11	9.899	Osteichthyes	Pleuronectidae	Platichthys	Neopterygii	Animalia	Pleuronectiformes	Chordata	Platichthys stellatus	Actinopterygii	Vertebrata	Gnathostomata	Eukaryota	Acanthopterygii	V3173-01
contains | ripples | nil	cruise	sand	29.05	3173	00:24:37:08	 	36.852856	-121.8557	2494264	3.23	2008-02-14 17:24:15.0	Ventana	33.804	00:24:22:29	9.897														V3173-01
population-quantity | self | 999, comment | self | clumps of diopatra	cruise	Polychaeta	28.68	3173	00:24:41:08	 	36.852844	-121.855675	2494265	3.23	2008-02-14 17:24:19.0	Ventana	33.804	00:24:27:27	9.897	Polychaeta				Animalia		Annelida					Eukaryota		V3173-01
contains | ripples | nil	cruise	sand	29.01	3173	00:25:29:06	 	36.8527	-121.85533	2494266	3.22	2008-02-14 17:25:08.0	Ventana	33.806	00:25:15:22	9.894														V3173-01
population-quantity | self | 999, comment | self | clumps of diopatra	cruise	Polychaeta	28.6	3173	00:25:33:06	 	36.85269	-121.8553	2494267	3.22	2008-02-14 17:25:12.0	Ventana	33.806	00:25:20:02	9.894	Polychaeta				Animalia		Annelida					Eukaryota		V3173-01
contains | ripples | nil	cruise	sand	28.65	3173	00:26:25:19	 	36.85255	-121.85493	2494268	3.22	2008-02-14 17:26:04.0	Ventana	33.807	00:26:12:12	9.904														V3173-01
population-quantity | self | 999, comment | self | clumps of diopatra	cruise	Polychaeta	28.23	3173	00:26:29:19	 	36.85254	-121.854904	2494269	3.22	2008-02-14 17:26:08.0	Ventana	33.806	00:26:16:11	9.902	Polychaeta				Animalia		Annelida					Eukaryota		V3173-01
contains | ripples | nil	cruise	sand	28.58	3173	00:27:11:18	 	36.852413	-121.85461	2494270	3.23	2008-02-14 17:26:50.0	Ventana	33.804	00:26:58:04	9.899														V3173-01
contains | ripples | nil	cruise	sand	28.89	3173	00:27:36:02	 	36.852345	-121.85445	2494271	3.23	2008-02-14 17:27:14.0	Ventana	33.804	00:27:22:09	9.902														V3173-01
population-quantity | self | 999, comment | self | clumps of diopatra	cruise	Polychaeta	28.8	3173	00:28:26:00	 	36.852196	-121.85411	2494272	3.23	2008-02-14 17:28:05.0	Ventana	33.803	00:28:11:27	9.901	Polychaeta				Animalia		Annelida					Eukaryota		V3173-01
contains | ripples | nil	cruise	sand	28.23	3173	00:28:32:00	 	36.852177	-121.854065	2494273	3.23	2008-02-14 17:28:11.0	Ventana	33.804	00:28:17:27	9.905														V3173-01
population-quantity | self | 999, comment | self | clumps of diopatra	cruise	Polychaeta	27.83	3173	00:29:26:14	 	36.85202	-121.85369	2494274	3.23	2008-02-14 17:29:05.0	Ventana	33.803	00:29:12:15	9.901	Polychaeta				Animalia		Annelida					Eukaryota		V3173-01
contains | ripples | nil	cruise	sand	28.29	3173	00:29:30:14	 	36.85201	-121.85367	2494275	3.24	2008-02-14 17:29:09.0	Ventana	33.802	00:29:16:29	9.907														V3173-01
near | benthos | nil	cruise	Chrysaora fuscescens	28.22	3173	00:29:58:13	 	36.851933	-121.853485	2494276	3.24	2008-02-14 17:29:37.0	Ventana	33.801	00:29:45:10	9.909	Scyphozoa	Pelagiidae	Chrysaora		Animalia	Semaeostomeae	Cnidaria	Chrysaora fuscescens				Eukaryota		V3173-01
contains | ripples | nil	cruise	sand	28.0	3173	00:30:42:27	 	36.851803	-121.85319	2494277	3.23	2008-02-14 17:30:21.0	Ventana	33.803	00:30:28:02	9.902														V3173-01
population-quantity | self | 999, comment | self | clumps of diopatra	cruise	Polychaeta	28.05	3173	00:30:46:26	 	36.851788	-121.853165	2494278	3.23	2008-02-14 17:30:25.0	Ventana	33.803	00:30:32:27	9.905	Polychaeta				Animalia		Annelida					Eukaryota		V3173-01
contains | ripples | nil	cruise	sand	28.07	3173	00:31:16:26	 	36.85169	-121.85296	2494279	3.24	2008-02-14 17:30:55.0	Ventana	33.801	00:31:03:20	9.904														V3173-01
population-quantity | self | 999, comment | self | clumps of diopatra	cruise	Polychaeta	27.98	3173	00:31:22:25	 	36.85166	-121.85291	2494280	3.24	2008-02-14 17:31:02.0	Ventana	33.801	00:31:09:15	9.904	Polychaeta				Animalia		Annelida					Eukaryota		V3173-01
contains | ripples | nil	cruise	sand	27.85	3173	00:31:42:24	 	36.85159	-121.85277	2494281	3.23	2008-02-14 17:31:22.0	Ventana	33.803	00:31:28:01	9.903														V3173-01
population-quantity | self | 999, comment | self | clumps of diopatra	cruise	Polychaeta	27.79	3173	00:31:44:25	 	36.85158	-121.85276	2494282	3.23	2008-02-14 17:31:24.0	Ventana	33.803	00:31:31:15	9.904	Polychaeta				Animalia		Annelida					Eukaryota		V3173-01
population-quantity | self | 999, comment | self | clumps of diopatra	cruise	Polychaeta	28.17	3173	00:32:08:24	 	36.851498	-121.85259	2494283	3.24	2008-02-14 17:31:48.0	Ventana	33.801	00:31:54:29	9.906	Polychaeta				Animalia		Annelida					Eukaryota		V3173-01
contains | ripples | nil	cruise	sand	27.83	3173	00:32:18:24	 	36.85147	-121.85253	2494284	3.24	2008-02-14 17:31:58.0	Ventana	33.8	00:32:05:02	9.907														V3173-01
contains | ripples | nil	cruise	sand	27.92	3173	00:32:51:08	 	36.85139	-121.85234	2494285	3.24	2008-02-14 17:32:30.0	Ventana	33.801	00:32:37:10	9.904														V3173-01
population-quantity | self | 999, comment | self | clumps of diopatra	cruise	Polychaeta	27.51	3173	00:32:57:07	 	36.85138	-121.8523	2494286	3.24	2008-02-14 17:32:36.0	Ventana	33.801	00:32:42:26	9.904	Polychaeta				Animalia		Annelida					Eukaryota		V3173-01
contains | ripples | nil	cruise	sand	27.69	3173	00:33:29:06	 	36.851345	-121.85222	2494287	1.67	2008-02-14 17:33:08.0	Ventana	33.802	00:33:16:22	9.902														V3173-01
population-quantity | self | 999, comment | self | clumps of diopatra	cruise	Polychaeta	27.76	3173	00:33:35:06	 	36.851143	-121.85183	2494288	1.67	2008-02-14 17:33:14.0	Ventana	33.802	00:33:22:14	9.902	Polychaeta				Animalia		Annelida					Eukaryota		V3173-01
contains | ripples | nil	cruise	sand	27.15	3173	00:34:31:20	 	36.85099	-121.85155	2494289	3.19	2008-02-14 17:34:10.0	Ventana	33.803	00:34:18:03	9.908														V3173-01
population-quantity | self | 999, comment | self | clumps of diopatra	cruise	Polychaeta	27.58	3173	00:34:35:19	 	36.85098	-121.85152	2494290	3.19	2008-02-14 17:34:14.0	Ventana	33.803	00:34:22:17	9.908	Polychaeta				Animalia		Annelida					Eukaryota		V3173-01
contains | ripples | nil	cruise	sand	27.23	3173	00:34:43:19	http://search.mbari.org/ARCHIVE/frameGrabs/Ventana/images/3173/00_34_29_28.jpg	36.85095	-121.85146	2494292	3.21	2008-02-14 17:34:23.0	Ventana	33.8	00:34:29:28	9.908														V3173-01
population-quantity | self | 999, comment | self | clumps of diopatra	cruise	Polychaeta	27.23	3173	00:34:43:19	http://search.mbari.org/ARCHIVE/frameGrabs/Ventana/images/3173/00_34_29_28.jpg	36.85095	-121.85146	2494293	3.21	2008-02-14 17:34:23.0	Ventana	33.8	00:34:29:28	9.908	Polychaeta				Animalia		Annelida					Eukaryota		V3173-01
contains | ripples | nil	cruise	sand	27.84	3173	00:35:07:19	 	36.85086	-121.851295	2494294	3.22	2008-02-14 17:34:47.0	Ventana	33.8	00:34:55:03	9.903														V3173-01
population-quantity | self | 999, comment | self | clumps of diopatra	cruise	Polychaeta	26.96	3173	00:35:11:18	 	36.850845	-121.851265	2494295	3.22	2008-02-14 17:34:51.0	Ventana	33.8	00:34:59:05	9.903	Polychaeta				Animalia		Annelida					Eukaryota		V3173-01
contains | ripples | nil	cruise	sand	27.46	3173	00:35:44:02	 	36.850716	-121.851036	2494296	3.22	2008-02-14 17:35:23.0	Ventana	33.802	00:35:29:10	9.899														V3173-01
population-quantity | self | 999, comment | self | clumps of diopatra	cruise	Polychaeta	27.26	3173	00:35:48:02	 	36.8507	-121.851006	2494297	3.22	2008-02-14 17:35:27.0	Ventana	33.802	00:35:34:08	9.899	Polychaeta				Animalia		Annelida					Eukaryota		V3173-01
population-quantity | self | 999, comment | self | clumps of diopatra	cruise	Polychaeta	27.23	3173	00:36:12:01	 	36.85062	-121.85086	2494298	3.22	2008-02-14 17:35:51.0	Ventana	33.802	00:35:59:20	9.9	Polychaeta				Animalia		Annelida					Eukaryota		V3173-01
contains | ripples | nil	cruise	sand	26.96	3173	00:36:18:01	 	36.850597	-121.85082	2494299	3.22	2008-02-14 17:35:57.0	Ventana	33.803	00:36:04:18	9.9														V3173-01
population-quantity | self | 999, comment | self | clumps of diopatra	cruise	Polychaeta	26.89	3173	00:36:54:15	 	36.850452	-121.85055	2494300	3.21	2008-02-14 17:36:33.0	Ventana	33.804	00:36:40:04	9.894	Polychaeta				Animalia		Annelida					Eukaryota		V3173-01
contains | ripples | nil	cruise	sand	27.13	3173	00:36:58:15	 	36.850437	-121.85052	2494301	3.21	2008-02-14 17:36:37.0	Ventana	33.804	00:36:43:22	9.894														V3173-01
population-quantity | self | 3	cruise	Asteroidea	27.1	3173	00:37:14:14	http://search.mbari.org/ARCHIVE/frameGrabs/Ventana/images/3173/00_37_00_04.jpg	36.85038	-121.8504	2494302	3.21	2008-02-14 17:36:53.0	Ventana	33.803	00:37:00:04	9.898					Animalia		Echinodermata		Asteroidea			Eukaryota		V3173-01
contains | ripples | nil	cruise	sand	27.22	3173	00:37:36:14	 	36.850296	-121.85024	2494303	3.21	2008-02-14 17:37:16.0	Ventana	33.803	00:37:23:11	9.894														V3173-01
population-quantity | self | 999, comment | self | clumps of diopatra	cruise	Polychaeta	26.87	3173	00:37:46:13	 	36.85026	-121.850174	2494304	3.21	2008-02-14 17:37:26.0	Ventana	33.803	00:37:31:25	9.897	Polychaeta				Animalia		Annelida					Eukaryota		V3173-01
contains | ripples | nil	cruise	sand	26.91	3173	00:38:06:13	 	36.850193	-121.85004	2494305	3.21	2008-02-14 17:37:46.0	Ventana	33.804	00:37:52:19	9.894														V3173-01
population-quantity | self | 999, comment | self | clumps of diopatra	cruise	Polychaeta	27.05	3173	00:38:12:12	 	36.850178	-121.85	2494306	3.21	2008-02-14 17:37:52.0	Ventana	33.804	00:37:58:25	9.894	Polychaeta				Animalia		Annelida					Eukaryota		V3173-01
near | benthos | nil	cruise	Chrysaora fuscescens	26.89	3173	00:38:28:27	 	36.85013	-121.84991	2494307	3.21	2008-02-14 17:38:08.0	Ventana	33.805	00:38:15:21	9.897	Scyphozoa	Pelagiidae	Chrysaora		Animalia	Semaeostomeae	Cnidaria	Chrysaora fuscescens				Eukaryota		V3173-01
population-quantity | self | 999, comment | self | clumps of diopatra	cruise	Polychaeta	26.47	3173	00:38:38:27	 	36.850094	-121.84984	2494308	3.21	2008-02-14 17:38:18.0	Ventana	33.805	00:38:24:26	9.897	Polychaeta				Animalia		Annelida					Eukaryota		V3173-01
contains | ripples | nil	cruise	sand	26.93	3173	00:38:42:27	 	36.850075	-121.8498	2494309	3.21	2008-02-14 17:38:22.0	Ventana	33.805	00:38:29:18	9.897														V3173-01
population-quantity | self | 999, comment | self | clumps of diopatra	cruise	Polychaeta	26.91	3173	00:39:20:26	 	36.84992	-121.8495	2494311	3.22	2008-02-14 17:39:00.0	Ventana	33.804	00:39:07:01	9.898	Polychaeta				Animalia		Annelida					Eukaryota		V3173-01
contains | ripples | nil	cruise	sand	26.82	3173	00:39:24:25	 	36.8499	-121.84947	2494312	3.22	2008-02-14 17:39:04.0	Ventana	33.804	00:39:12:01	9.898														V3173-01
contains | ripples | nil	cruise	sand	26.59	3173	00:39:59:09	 	36.84975	-121.84918	2494314	3.21	2008-02-14 17:39:38.0	Ventana	33.803	00:39:44:15	9.899														V3173-01
population-quantity | self | 999, comment | self | clumps of diopatra	cruise	Polychaeta	26.43	3173	00:40:03:09	 	36.84973	-121.84915	2494315	3.21	2008-02-14 17:39:42.0	Ventana	33.803	00:39:50:13	9.899	Polychaeta				Animalia		Annelida					Eukaryota		V3173-01
near | benthos | nil	cruise	Chrysaora fuscescens	26.62	3173	00:40:27:09	 	36.849644	-121.84897	2494316	3.22	2008-02-14 17:40:06.0	Ventana	33.804	00:40:14:09	9.901	Scyphozoa	Pelagiidae	Chrysaora		Animalia	Semaeostomeae	Cnidaria	Chrysaora fuscescens				Eukaryota		V3173-01
near | benthos | nil	cruise	Chrysaora fuscescens	26.52	3173	00:41:01:07	 	36.84951	-121.848694	2494317	3.22	2008-02-14 17:40:41.0	Ventana	33.802	00:40:46:13	9.905	Scyphozoa	Pelagiidae	Chrysaora		Animalia	Semaeostomeae	Cnidaria	Chrysaora fuscescens				Eukaryota		V3173-01
contains | ripples | nil	cruise	sand	26.47	3173	00:41:09:07	 	36.849472	-121.84862	2494318	3.22	2008-02-14 17:40:49.0	Ventana	33.802	00:40:54:17	9.905														V3173-01
population-quantity | self | 999, comment | self | clumps of diopatra	cruise	Polychaeta	26.74	3173	00:41:13:07	 	36.849457	-121.84859	2494319	3.22	2008-02-14 17:40:53.0	Ventana	33.802	00:41:00:15	9.905	Polychaeta				Animalia		Annelida					Eukaryota		V3173-01
contains | ripples | nil	cruise	sand	25.91	3173	00:41:49:21	 	36.849323	-121.848305	2494320	3.22	2008-02-14 17:41:29.0	Ventana	33.802	00:41:36:03	9.903														V3173-01
population-quantity | self | 999, comment | self | clumps of diopatra	cruise	Polychaeta	26.29	3173	00:41:59:20	 	36.849285	-121.84823	2494321	3.22	2008-02-14 17:41:39.0	Ventana	33.802	00:41:45:25	9.903	Polychaeta				Animalia		Annelida					Eukaryota		V3173-01
contains | ripples | nil	cruise	sand	26.65	3173	00:42:40:05	 	36.849144	-121.84791	2494323	3.22	2008-02-14 17:42:19.0	Ventana	33.802	00:42:26:07	9.902														V3173-01
population-quantity | self | 999, comment | self | clumps of diopatra	cruise	Polychaeta	26.09	3173	00:42:44:04	 	36.84913	-121.84788	2494324	3.22	2008-02-14 17:42:23.0	Ventana	33.802	00:42:31:03	9.902	Polychaeta				Animalia		Annelida					Eukaryota		V3173-01
contains | ripples | nil	cruise	sand	26.19	3173	00:43:08:04	 	36.849045	-121.847694	2494325	3.22	2008-02-14 17:42:47.0	Ventana	33.802	00:42:54:17	9.902														V3173-01
population-quantity | self | 999, comment | self | clumps of diopatra	cruise	Polychaeta	26.33	3173	00:43:12:03	 	36.84903	-121.847664	2494326	3.22	2008-02-14 17:42:51.0	Ventana	33.802	00:42:58:13	9.902	Polychaeta				Animalia		Annelida					Eukaryota		V3173-01
near | benthos | nil	cruise	Chrysaora fuscescens	25.61	3173	00:43:48:02	 	36.848915	-121.847435	2494328	3.22	2008-02-14 17:43:28.0	Ventana	33.801	00:43:34:26	9.904	Scyphozoa	Pelagiidae	Chrysaora		Animalia	Semaeostomeae	Cnidaria	Chrysaora fuscescens				Eukaryota		V3173-01
population-quantity | self | 999, comment | self | clumps of diopatra	cruise	Polychaeta	25.97	3173	00:43:54:02	 	36.848904	-121.84741	2494329	3.22	2008-02-14 17:43:34.0	Ventana	33.801	00:43:41:16	9.904	Polychaeta				Animalia		Annelida					Eukaryota		V3173-01
contains | ripples | nil	cruise	sand	26.18	3173	00:44:00:02	 	36.848885	-121.84738	2494330	3.23	2008-02-14 17:43:40.0	Ventana	33.801	00:43:46:20	9.904														V3173-01
near | benthos | nil	cruise	Chrysaora fuscescens	26.01	3173	00:44:16:01	 	36.848866	-121.84734	2494331	3.23	2008-02-14 17:43:56.0	Ventana	33.8	00:44:02:24	9.903	Scyphozoa	Pelagiidae	Chrysaora		Animalia	Semaeostomeae	Cnidaria	Chrysaora fuscescens				Eukaryota		V3173-01
contains | ripples | nil	cruise	sand	25.74	3173	00:44:34:16	 	36.848736	-121.84709	2494332	3.22	2008-02-14 17:44:14.0	Ventana	33.802	00:44:21:12	9.9														V3173-01
population-quantity | self | 999, comment | self | clumps of diopatra	cruise	Polychaeta	25.82	3173	00:44:44:16	 	36.848713	-121.847046	2494333	3.21	2008-02-14 17:44:24.0	Ventana	33.803	00:44:30:28	9.898	Polychaeta				Animalia		Annelida					Eukaryota		V3173-01
water-quality | self | sediment-cloudy	cruise	water	25.81	3173	00:45:28:14	 	36.84868	-121.84688	2494334	2.66	2008-02-14 17:45:08.0	Ventana	33.803	00:45:15:00	9.897														V3173-01
near | benthos | nil	cruise	Chrysaora fuscescens	25.8	3173	00:45:56:28	 	36.848694	-121.84682	2494335	2.71	2008-02-14 17:45:36.0	Ventana	33.803	00:45:42:04	9.898	Scyphozoa	Pelagiidae	Chrysaora		Animalia	Semaeostomeae	Cnidaria	Chrysaora fuscescens				Eukaryota		V3173-01
comment | self | clump of diopatra	transect	Polychaeta	25.82	3173	00:46:32:27	 	36.848713	-121.84672	2494336	2.11	2008-02-14 17:46:12.0	Ventana	33.803	00:46:19:01	9.899	Polychaeta				Animalia		Annelida					Eukaryota		V3173-01
comment | self | clump of diopatra	transect	Polychaeta	25.84	3173	00:46:36:27	 	36.848713	-121.84671	2494337	2.11	2008-02-14 17:46:16.0	Ventana	33.803	00:46:23:00	9.899	Polychaeta				Animalia		Annelida					Eukaryota		V3173-01
comment | self | clump of diopatra	transect	Polychaeta	25.62	3173	00:46:42:27	 	36.84871	-121.846695	2494339	2.98	2008-02-14 17:46:23.0	Ventana	33.803	00:46:28:04	9.899	Polychaeta				Animalia		Annelida					Eukaryota		V3173-01
comment | self | clump of diopatra	transect	Polychaeta	25.71	3173	00:46:44:27	 	36.84871	-121.84669	2494341	2.98	2008-02-14 17:46:25.0	Ventana	33.803	00:46:31:07	9.899	Polychaeta				Animalia		Annelida					Eukaryota		V3173-01
comment | self | clump of diopatra	transect	Polychaeta	25.8	3173	00:46:46:27	 	36.848705	-121.84668	2494342	2.98	2008-02-14 17:46:27.0	Ventana	33.803	00:46:32:16	9.899	Polychaeta				Animalia		Annelida					Eukaryota		V3173-01
comment | self | clump of diopatra	transect	Polychaeta	25.82	3173	00:46:56:26	 	36.848694	-121.84665	2494343	2.98	2008-02-14 17:46:37.0	Ventana	33.803	00:46:42:02	9.899	Polychaeta				Animalia		Annelida					Eukaryota		V3173-01
comment | self | clump of diopatra	transect	Polychaeta	25.82	3173	00:46:56:26	 	36.848694	-121.84665	2494344	2.98	2008-02-14 17:46:37.0	Ventana	33.803	00:46:42:18	9.899	Polychaeta				Animalia		Annelida					Eukaryota		V3173-01
comment | self | clump of diopatra	transect	Polychaeta	25.82	3173	00:46:56:26	 	36.848694	-121.84665	2494345	2.98	2008-02-14 17:46:37.0	Ventana	33.803	00:46:43:03	9.899	Polychaeta				Animalia		Annelida					Eukaryota		V3173-01
comment | self | clump of diopatra	transect	Polychaeta	25.82	3173	00:46:56:26	 	36.848694	-121.84665	2494346	2.98	2008-02-14 17:46:37.0	Ventana	33.803	00:46:43:17	9.899	Polychaeta				Animalia		Annelida					Eukaryota		V3173-01
comment | self | clump of diopatra	transect	Polychaeta	25.56	3173	00:47:02:26	 	36.84864	-121.846535	2494347	3.19	2008-02-14 17:46:43.0	Ventana	33.803	00:46:49:07	9.9	Polychaeta				Animalia		Annelida					Eukaryota		V3173-01
comment | self | clump of diopatra	transect	Polychaeta	25.71	3173	00:47:04:26	 	36.84864	-121.846535	2494348	3.19	2008-02-14 17:46:45.0	Ventana	33.803	00:46:51:25	9.9	Polychaeta				Animalia		Annelida					Eukaryota		V3173-01
comment | self | clump of diopatra	transect	Polychaeta	25.71	3173	00:47:04:26	 	36.84864	-121.846535	2494349	3.19	2008-02-14 17:46:45.0	Ventana	33.803	00:46:52:01	9.9	Polychaeta				Animalia		Annelida					Eukaryota		V3173-01
comment | self | clump of diopatra	transect	Polychaeta	25.83	3173	00:47:06:26	 	36.848637	-121.84653	2494350	3.19	2008-02-14 17:46:47.0	Ventana	33.803	00:46:53:05	9.9	Polychaeta				Animalia		Annelida					Eukaryota		V3173-01
comment | self | clump of diopatra	transect	Polychaeta	25.88	3173	00:47:08:26	 	36.848637	-121.84653	2494351	3.19	2008-02-14 17:46:49.0	Ventana	33.803	00:46:56:04	9.9	Polychaeta				Animalia		Annelida					Eukaryota		V3173-01
comment | self | clump of diopatra	transect	Polychaeta	25.88	3173	00:47:08:26	 	36.848637	-121.84653	2494352	3.19	2008-02-14 17:46:49.0	Ventana	33.803	00:46:56:14	9.9	Polychaeta				Animalia		Annelida					Eukaryota		V3173-01
comment | self | clump of diopatra	transect	Polychaeta	25.55	3173	00:47:12:26	 	36.84863	-121.84651	2494353	3.2	2008-02-14 17:46:53.0	Ventana	33.803	00:46:59:04	9.9	Polychaeta				Animalia		Annelida					Eukaryota		V3173-01
comment | self | clump of diopatra	transect	Polychaeta	25.35	3173	00:47:16:26	 	36.84862	-121.846504	2494354	3.2	2008-02-14 17:46:57.0	Ventana	33.803	00:47:03:10	9.9	Polychaeta				Animalia		Annelida					Eukaryota		V3173-01
comment | self | clump of diopatra	transect	Polychaeta	25.42	3173	00:47:18:26	 	36.848618	-121.8465	2494355	3.2	2008-02-14 17:46:59.0	Ventana	33.803	00:47:06:03	9.9	Polychaeta				Animalia		Annelida					Eukaryota		V3173-01
comment | self | clump of diopatra	transect	Polychaeta	25.64	3173	00:47:20:26	 	36.848614	-121.84649	2494356	3.2	2008-02-14 17:47:01.0	Ventana	33.803	00:47:07:16	9.9	Polychaeta				Animalia		Annelida					Eukaryota		V3173-01
comment | self | clump of diopatra	transect	Polychaeta	25.86	3173	00:47:23:11	 	36.84861	-121.84649	2494357	3.2	2008-02-14 17:47:03.0	Ventana	33.803	00:47:10:03	9.9	Polychaeta				Animalia		Annelida					Eukaryota		V3173-01
comment | self | clump of diopatra	transect	Polychaeta	25.89	3173	00:47:25:11	 	36.848606	-121.84648	2494358	3.2	2008-02-14 17:47:05.0	Ventana	33.803	00:47:11:12	9.9	Polychaeta				Animalia		Annelida					Eukaryota		V3173-01
comment | self | clump of diopatra	transect	Polychaeta	25.89	3173	00:47:25:11	 	36.848606	-121.84648	2494359	3.2	2008-02-14 17:47:05.0	Ventana	33.803	00:47:11:28	9.9	Polychaeta				Animalia		Annelida					Eukaryota		V3173-01
comment | self | clump of diopatra	transect	Polychaeta	25.68	3173	00:47:27:10	 	36.848606	-121.84648	2494360	3.2	2008-02-14 17:47:07.0	Ventana	33.803	00:47:14:14	9.9	Polychaeta				Animalia		Annelida					Eukaryota		V3173-01
comment | self | clump of diopatra	transect	Polychaeta	26.07	3173	00:48:27:09	 	36.847923	-121.845436	2494363	3.21	2008-02-14 17:48:07.0	Ventana	33.802	00:48:14:11	9.9	Polychaeta				Animalia		Annelida					Eukaryota		V3173-01
comment | self | clump of diopatra	transect	Polychaeta	25.7	3173	00:48:29:24	 	36.847916	-121.84542	2494364	3.21	2008-02-14 17:48:09.0	Ventana	33.802	00:48:16:18	9.899	Polychaeta				Animalia		Annelida					Eukaryota		V3173-01
comment | self | clump of diopatra	transect	Polychaeta	25.26	3173	00:48:33:23	 	36.8479	-121.8454	2494365	3.21	2008-02-14 17:48:13.0	Ventana	33.802	00:48:19:10	9.899	Polychaeta				Animalia		Annelida					Eukaryota		V3173-01
comment | self | clump of diopatra	transect	Polychaeta	25.26	3173	00:48:33:23	 	36.8479	-121.8454	2494366	3.21	2008-02-14 17:48:13.0	Ventana	33.802	00:48:20:17	9.899	Polychaeta				Animalia		Annelida					Eukaryota		V3173-01
comment | self | clump of diopatra	transect	Polychaeta	25.42	3173	00:48:35:23	 	36.847893	-121.84539	2494367	3.21	2008-02-14 17:48:15.0	Ventana	33.802	00:48:22:10	9.899	Polychaeta				Animalia		Annelida					Eukaryota		V3173-01
comment | self | clump of diopatra	transect	Polychaeta	25.42	3173	00:48:35:23	 	36.847893	-121.84539	2494368	3.21	2008-02-14 17:48:15.0	Ventana	33.802	00:48:22:20	9.899	Polychaeta				Animalia		Annelida					Eukaryota		V3173-01
comment | self | clump of diopatra	transect	Polychaeta	25.82	3173	00:48:37:23	 	36.847885	-121.845375	2494369	3.21	2008-02-14 17:48:17.0	Ventana	33.802	00:48:24:08	9.899	Polychaeta				Animalia		Annelida					Eukaryota		V3173-01
comment | self | clump of diopatra	transect	Polychaeta	26.13	3173	00:48:39:23	 	36.847878	-121.84537	2494370	3.21	2008-02-14 17:48:19.0	Ventana	33.802	00:48:25:05	9.899	Polychaeta				Animalia		Annelida					Eukaryota		V3173-01
comment | self | clump of diopatra	transect	Polychaeta	26.15	3173	00:48:41:23	 	36.84787	-121.84536	2494371	3.21	2008-02-14 17:48:21.0	Ventana	33.802	00:48:27:18	9.899	Polychaeta				Animalia		Annelida					Eukaryota		V3173-01
comment | self | clump of diopatra	transect	Polychaeta	25.81	3173	00:48:43:23	 	36.847862	-121.845345	2494372	3.21	2008-02-14 17:48:23.0	Ventana	33.802	00:48:29:15	9.899	Polychaeta				Animalia		Annelida					Eukaryota		V3173-01
comment | self | clump of diopatra	transect	Polychaeta	25.29	3173	00:48:45:23	 	36.84786	-121.84534	2494373	3.21	2008-02-14 17:48:25.0	Ventana	33.802	00:48:32:10	9.899	Polychaeta				Animalia		Annelida					Eukaryota		V3173-01
comment | self | clump of diopatra	transect	Polychaeta	25.2	3173	00:48:47:23	 	36.84785	-121.84532	2494374	3.21	2008-02-14 17:48:27.0	Ventana	33.802	00:48:34:25	9.899	Polychaeta				Animalia		Annelida					Eukaryota		V3173-01
comment | self | clump of diopatra	transect	Polychaeta	25.3	3173	00:48:49:23	 	36.847843	-121.845314	2494375	3.21	2008-02-14 17:48:29.0	Ventana	33.802	00:48:36:23	9.899	Polychaeta				Animalia		Annelida					Eukaryota		V3173-01
comment | self | clump of diopatra	transect	Polychaeta	25.78	3173	00:48:51:23	 	36.847836	-121.84531	2494376	3.21	2008-02-14 17:48:31.0	Ventana	33.802	00:48:38:12	9.899	Polychaeta				Animalia		Annelida					Eukaryota		V3173-01
comment | self | clump of diopatra	transect	Polychaeta	25.78	3173	00:48:51:23	 	36.847836	-121.84531	2494377	3.21	2008-02-14 17:48:31.0	Ventana	33.802	00:48:38:23	9.899	Polychaeta				Animalia		Annelida					Eukaryota		V3173-01
comment | self | clump of diopatra	transect	Polychaeta	25.61	3173	00:48:57:23	 	36.847816	-121.845276	2494380	3.21	2008-02-14 17:48:37.0	Ventana	33.802	00:48:44:04	9.899	Polychaeta				Animalia		Annelida					Eukaryota		V3173-01
comment | self | clump of diopatra	transect	Polychaeta	25.41	3173	00:48:59:23	 	36.84781	-121.84526	2494381	3.21	2008-02-14 17:48:39.0	Ventana	33.803	00:48:46:20	9.898	Polychaeta				Animalia		Annelida					Eukaryota		V3173-01
comment | self | clump of diopatra	transect	Polychaeta	25.51	3173	00:49:03:23	 	36.847797	-121.845245	2494382	3.21	2008-02-14 17:48:43.0	Ventana	33.803	00:48:49:19	9.898	Polychaeta				Animalia		Annelida					Eukaryota		V3173-01
comment | self | clump of diopatra	transect	Polychaeta	25.6	3173	00:49:05:23	 	36.84779	-121.84524	2494383	3.21	2008-02-14 17:48:45.0	Ventana	33.803	00:48:51:27	9.898	Polychaeta				Animalia		Annelida					Eukaryota		V3173-01
comment | self | clump of diopatra	transect	Polychaeta	25.78	3173	00:49:07:22	 	36.847786	-121.84522	2494384	3.21	2008-02-14 17:48:47.0	Ventana	33.803	00:48:53:19	9.898	Polychaeta				Animalia		Annelida					Eukaryota		V3173-01
comment | self | clump of diopatra	transect	Polychaeta	25.78	3173	00:49:07:22	 	36.847786	-121.84522	2494385	3.21	2008-02-14 17:48:47.0	Ventana	33.803	00:48:54:11	9.898	Polychaeta				Animalia		Annelida					Eukaryota		V3173-01
comment | self | clump of diopatra	transect	Polychaeta	25.83	3173	00:49:09:22	 	36.84778	-121.845215	2494386	3.21	2008-02-14 17:48:49.0	Ventana	33.803	00:48:55:21	9.898	Polychaeta				Animalia		Annelida					Eukaryota		V3173-01
comment | self | clump of diopatra	transect	Polychaeta	25.83	3173	00:49:09:22	 	36.84778	-121.845215	2494387	3.21	2008-02-14 17:48:49.0	Ventana	33.803	00:48:56:24	9.898	Polychaeta				Animalia		Annelida					Eukaryota		V3173-01
comment | self | clump of diopatra	transect	Polychaeta	25.69	3173	00:49:13:22	 	36.847767	-121.8452	2494388	3.21	2008-02-14 17:48:53.0	Ventana	33.803	00:48:59:08	9.899	Polychaeta				Animalia		Annelida					Eukaryota		V3173-01
comment | self | clump of diopatra	transect	Polychaeta	25.66	3173	00:49:15:22	 	36.84776	-121.84519	2494389	3.21	2008-02-14 17:48:55.0	Ventana	33.803	00:49:02:07	9.899	Polychaeta				Animalia		Annelida					Eukaryota		V3173-01
comment | self | clump of diopatra	transect	Polychaeta	25.61	3173	00:49:17:22	 	36.847755	-121.845184	2494390	3.21	2008-02-14 17:48:57.0	Ventana	33.803	00:49:03:04	9.899	Polychaeta				Animalia		Annelida					Eukaryota		V3173-01
comment | self | clump of diopatra	transect	Polychaeta	25.52	3173	00:49:21:22	 	36.84774	-121.84516	2494391	3.21	2008-02-14 17:49:02.0	Ventana	33.803	00:49:07:22	9.899	Polychaeta				Animalia		Annelida					Eukaryota		V3173-01
comment | self | clump of diopatra	transect	Polychaeta	25.65	3173	00:49:23:22	 	36.847736	-121.84515	2494392	3.21	2008-02-14 17:49:04.0	Ventana	33.803	00:49:09:04	9.899	Polychaeta				Animalia		Annelida					Eukaryota		V3173-01
comment | self | clump of diopatra	transect	Polychaeta	25.74	3173	00:49:25:22	 	36.84773	-121.845146	2494393	3.21	2008-02-14 17:49:06.0	Ventana	33.803	00:49:12:24	9.899	Polychaeta				Animalia		Annelida					Eukaryota		V3173-01
near | benthos | nil	transect	Chrysaora fuscescens	25.88	3173	00:49:27:22	 	36.847725	-121.84514	2494394	3.21	2008-02-14 17:49:08.0	Ventana	33.803	00:49:14:15	9.899	Scyphozoa	Pelagiidae	Chrysaora		Animalia	Semaeostomeae	Cnidaria	Chrysaora fuscescens				Eukaryota		V3173-01
population-quantity | self | 3	transect	Asteroidea	25.73	3173	00:49:31:22	http://search.mbari.org/ARCHIVE/frameGrabs/Ventana/images/3173/00_49_18_17.jpg	36.847713	-121.84512	2494396	3.21	2008-02-14 17:49:12.0	Ventana	33.803	00:49:18:17	9.899					Animalia		Echinodermata		Asteroidea			Eukaryota		V3173-01
comment | self | clump of diopatra	transect	Polychaeta	25.73	3173	00:49:39:22	 	36.847694	-121.84509	2494397	3.21	2008-02-14 17:49:20.0	Ventana	33.803	00:49:25:04	9.899	Polychaeta				Animalia		Annelida					Eukaryota		V3173-01
comment | self | clump of diopatra	transect	Polychaeta	25.73	3173	00:49:39:22	 	36.847694	-121.84509	2494398	3.21	2008-02-14 17:49:20.0	Ventana	33.803	00:49:26:07	9.899	Polychaeta				Animalia		Annelida					Eukaryota		V3173-01
comment | self | clump of diopatra	transect	Polychaeta	25.94	3173	00:49:41:21	 	36.84769	-121.845085	2494399	3.21	2008-02-14 17:49:22.0	Ventana	33.803	00:49:27:27	9.899	Polychaeta				Animalia		Annelida					Eukaryota		V3173-01
comment | self | clump of diopatra	transect	Polychaeta	25.94	3173	00:49:41:21	 	36.84769	-121.845085	2494400	3.21	2008-02-14 17:49:22.0	Ventana	33.803	00:49:28:09	9.899	Polychaeta				Animalia		Annelida					Eukaryota		V3173-01
comment | self | clump of diopatra	transect	Polychaeta	25.91	3173	00:49:43:21	 	36.847687	-121.84508	2494401	3.21	2008-02-14 17:49:24.0	Ventana	33.803	00:49:30:04	9.9	Polychaeta				Animalia		Annelida					Eukaryota		V3173-01
comment | self | clump of diopatra	transect	Polychaeta	25.58	3173	00:49:51:21	 	36.847668	-121.84505	2494402	3.21	2008-02-14 17:49:32.0	Ventana	33.803	00:49:37:20	9.9	Polychaeta				Animalia		Annelida					Eukaryota		V3173-01
comment | self | clump of diopatra	transect	Polychaeta	25.77	3173	00:49:55:21	 	36.847656	-121.84504	2494403	3.21	2008-02-14 17:49:36.0	Ventana	33.803	00:49:42:26	9.9	Polychaeta				Animalia		Annelida					Eukaryota		V3173-01
comment | self | clump of diopatra	transect	Polychaeta	25.68	3173	00:49:57:21	 	36.847652	-121.84503	2494404	3.21	2008-02-14 17:49:38.0	Ventana	33.802	00:49:43:21	9.9	Polychaeta				Animalia		Annelida					Eukaryota		V3173-01
comment | self | clump of diopatra	transect	Polychaeta	25.7	3173	00:49:59:21	 	36.84765	-121.845024	2494405	3.21	2008-02-14 17:49:40.0	Ventana	33.802	00:49:45:24	9.9	Polychaeta				Animalia		Annelida					Eukaryota		V3173-01
comment | self | clump of diopatra	transect	Polychaeta	25.7	3173	00:49:59:21	 	36.84765	-121.845024	2494406	3.21	2008-02-14 17:49:40.0	Ventana	33.802	00:49:46:07	9.9	Polychaeta				Animalia		Annelida					Eukaryota		V3173-01
comment | self | clump of diopatra	transect	Polychaeta	25.71	3173	00:50:01:21	 	36.84764	-121.84501	2494407	3.21	2008-02-14 17:49:42.0	Ventana	33.802	00:49:47:29	9.9	Polychaeta				Animalia		Annelida					Eukaryota		V3173-01
comment | self | clump of diopatra	transect	Polychaeta	25.83	3173	00:50:03:20	 	36.847637	-121.84501	2494408	3.21	2008-02-14 17:49:44.0	Ventana	33.802	00:49:50:22	9.9	Polychaeta				Animalia		Annelida					Eukaryota		V3173-01
comment | self | clump of diopatra	transect	Polychaeta	25.81	3173	00:50:05:21	 	36.847633	-121.845	2494409	3.21	2008-02-14 17:49:46.0	Ventana	33.802	00:49:52:17	9.9	Polychaeta				Animalia		Annelida					Eukaryota		V3173-01
comment | self | clump of diopatra	transect	Polychaeta	25.26	3173	00:50:11:20	 	36.847622	-121.844986	2494410	3.21	2008-02-14 17:49:52.0	Ventana	33.802	00:49:57:19	9.9	Polychaeta				Animalia		Annelida					Eukaryota		V3173-01
comment | self | clump of diopatra	transect	Polychaeta	25.26	3173	00:50:11:20	 	36.847622	-121.844986	2494411	3.21	2008-02-14 17:49:52.0	Ventana	33.802	00:49:59:01	9.9	Polychaeta				Animalia		Annelida					Eukaryota		V3173-01
comment | self | clump of diopatra	transect	Polychaeta	25.77	3173	00:50:15:20	 	36.847614	-121.84497	2494412	3.21	2008-02-14 17:49:56.0	Ventana	33.802	00:50:02:16	9.901	Polychaeta				Animalia		Annelida					Eukaryota		V3173-01
comment | self | clump of diopatra	transect	Polychaeta	25.97	3173	00:50:20:05	 	36.84761	-121.84496	2494413	3.21	2008-02-14 17:50:00.0	Ventana	33.802	00:50:05:28	9.901	Polychaeta				Animalia		Annelida					Eukaryota		V3173-01
comment | self | clump of diopatra	transect	Polychaeta	25.65	3173	00:50:22:05	 	36.847607	-121.844955	2494414	3.21	2008-02-14 17:50:02.0	Ventana	33.802	00:50:07:15	9.901	Polychaeta				Animalia		Annelida					Eukaryota		V3173-01
comment | self | clump of diopatra	transect	Polychaeta	25.07	3173	00:50:26:05	 	36.8476	-121.84495	2494415	3.21	2008-02-14 17:50:06.0	Ventana	33.802	00:50:12:23	9.901	Polychaeta				Animalia		Annelida					Eukaryota		V3173-01
comment | self | clump of diopatra	transect	Polychaeta	25.47	3173	00:50:42:04	 	36.847576	-121.84491	2494416	3.21	2008-02-14 17:50:22.0	Ventana	33.803	00:50:27:10	9.901	Polychaeta				Animalia		Annelida					Eukaryota		V3173-01
comment | self | clump of diopatra	transect	Polychaeta	25.57	3173	00:50:52:04	 	36.847565	-121.844894	2494417	3.22	2008-02-14 17:50:32.0	Ventana	33.802	00:50:37:28	9.9	Polychaeta				Animalia		Annelida					Eukaryota		V3173-01
comment | self | clump of diopatra	transect	Polychaeta	25.57	3173	00:50:52:04	 	36.847565	-121.844894	2494418	3.22	2008-02-14 17:50:32.0	Ventana	33.802	00:50:38:20	9.9	Polychaeta				Animalia		Annelida					Eukaryota		V3173-01
comment | self | clump of diopatra	transect	Polychaeta	25.32	3173	00:50:56:04	 	36.847557	-121.84489	2494419	3.22	2008-02-14 17:50:36.0	Ventana	33.802	00:50:42:27	9.9	Polychaeta				Animalia		Annelida					Eukaryota		V3173-01
comment | self | clump of diopatra	transect	Polychaeta	25.77	3173	00:51:06:04	 	36.847546	-121.84487	2494420	3.22	2008-02-14 17:50:46.0	Ventana	33.801	00:50:51:26	9.9	Polychaeta				Animalia		Annelida					Eukaryota		V3173-01
comment | self | clump of diopatra	transect	Polychaeta	25.49	3173	00:51:12:04	 	36.84754	-121.844864	2494421	3.22	2008-02-14 17:50:52.0	Ventana	33.801	00:50:58:18	9.9	Polychaeta				Animalia		Annelida					Eukaryota		V3173-01
comment | self | clump of diopatra	cruise	Polychaeta	25.54	3173	00:53:58:28	 	36.847485	-121.84478	2494422	3.18	2008-02-14 17:53:39.0	Ventana	33.807	00:53:44:09	9.888	Polychaeta				Animalia		Annelida					Eukaryota		V3173-01
comment | self | clump of diopatra	cruise	Polychaeta	25.62	3173	00:54:00:29	 	36.847485	-121.84478	2494424	3.18	2008-02-14 17:53:41.0	Ventana	33.807	00:53:47:09	9.888	Polychaeta				Animalia		Annelida					Eukaryota		V3173-01
near | benthos | nil	cruise	Chrysaora fuscescens	25.82	3173	00:54:02:28	 	36.847485	-121.84478	2494425	3.18	2008-02-14 17:53:43.0	Ventana	33.807	00:53:49:09	9.888	Scyphozoa	Pelagiidae	Chrysaora		Animalia	Semaeostomeae	Cnidaria	Chrysaora fuscescens				Eukaryota		V3173-01
comment | self | clump of diopatra	transect	Polychaeta	25.9	3173	00:54:06:28	 	36.847485	-121.84478	2494426	3.18	2008-02-14 17:53:47.0	Ventana	33.807	00:53:52:27	9.888	Polychaeta				Animalia		Annelida					Eukaryota		V3173-01
comment | self | clump of diopatra	transect	Polychaeta	25.86	3173	00:54:14:28	 	36.847485	-121.84478	2494427	3.19	2008-02-14 17:53:55.0	Ventana	33.808	00:54:02:15	9.884	Polychaeta				Animalia		Annelida					Eukaryota		V3173-01
comment | self | clump of diopatra	transect	Polychaeta	25.86	3173	00:54:18:27	 	36.847485	-121.84478	2494428	3.19	2008-02-14 17:53:59.0	Ventana	33.808	00:54:05:17	9.884	Polychaeta				Animalia		Annelida					Eukaryota		V3173-01
comment | self | clump of diopatra	transect	Polychaeta	25.86	3173	00:54:18:27	 	36.847485	-121.84478	2494429	3.19	2008-02-14 17:53:59.0	Ventana	33.808	00:54:06:12	9.884	Polychaeta				Animalia		Annelida					Eukaryota		V3173-01
comment | self | clump of diopatra	transect	Polychaeta	25.86	3173	00:54:20:28	 	36.847485	-121.84478	2494430	3.19	2008-02-14 17:54:01.0	Ventana	33.808	00:54:06:22	9.884	Polychaeta				Animalia		Annelida					Eukaryota		V3173-01
comment | self | clump of diopatra	transect	Polychaeta	25.89	3173	00:54:22:28	 	36.847485	-121.84478	2494431	3.19	2008-02-14 17:54:03.0	Ventana	33.808	00:54:09:27	9.884	Polychaeta				Animalia		Annelida					Eukaryota		V3173-01
comment | self | clump of diopatra	transect	Polychaeta	25.66	3173	00:54:26:27	 	36.847485	-121.84478	2494432	3.19	2008-02-14 17:54:07.0	Ventana	33.808	00:54:13:24	9.884	Polychaeta				Animalia		Annelida					Eukaryota		V3173-01
comment | self | clump of diopatra	transect	Polychaeta	25.66	3173	00:54:26:27	 	36.847485	-121.84478	2494433	3.19	2008-02-14 17:54:07.0	Ventana	33.808	00:54:14:07	9.884	Polychaeta				Animalia		Annelida					Eukaryota		V3173-01
comment | self | clump of diopatra	transect	Polychaeta	25.84	3173	00:54:30:27	 	36.847485	-121.84478	2494434	3.17	2008-02-14 17:54:11.0	Ventana	33.81	00:54:16:27	9.877	Polychaeta				Animalia		Annelida					Eukaryota		V3173-01
comment | self | clump of diopatra	transect	Polychaeta	25.83	3173	00:54:39:12	 	36.847485	-121.84478	2494435	3.17	2008-02-14 17:54:19.0	Ventana	33.81	00:54:25:28	9.877	Polychaeta				Animalia		Annelida					Eukaryota		V3173-01
comment | self | clump of diopatra	transect	Polychaeta	25.83	3173	00:54:41:12	 	36.847485	-121.84478	2494436	3.17	2008-02-14 17:54:21.0	Ventana	33.81	00:54:28:05	9.877	Polychaeta				Animalia		Annelida					Eukaryota		V3173-01
comment | self | clump of diopatra	transect	Polychaeta	25.76	3173	00:54:43:12	 	36.847485	-121.84478	2494437	3.16	2008-02-14 17:54:23.0	Ventana	33.812	00:54:29:21	9.871	Polychaeta				Animalia		Annelida					Eukaryota		V3173-01
comment | self | clump of diopatra	transect	Polychaeta	25.76	3173	00:54:43:12	 	36.847485	-121.84478	2494438	3.16	2008-02-14 17:54:23.0	Ventana	33.812	00:54:30:11	9.871	Polychaeta				Animalia		Annelida					Eukaryota		V3173-01
comment | self | clump of diopatra	transect	Polychaeta	25.67	3173	00:54:45:12	 	36.847485	-121.84478	2494439	3.16	2008-02-14 17:54:25.0	Ventana	33.812	00:54:30:22	9.871	Polychaeta				Animalia		Annelida					Eukaryota		V3173-01
comment | self | clump of diopatra	transect	Polychaeta	25.71	3173	00:54:47:12	 	36.847485	-121.84478	2494440	3.16	2008-02-14 17:54:27.0	Ventana	33.812	00:54:32:27	9.871	Polychaeta				Animalia		Annelida					Eukaryota		V3173-01
comment | self | clump of diopatra	transect	Polychaeta	25.71	3173	00:54:47:12	 	36.847485	-121.84478	2494441	3.16	2008-02-14 17:54:27.0	Ventana	33.812	00:54:33:12	9.871	Polychaeta				Animalia		Annelida					Eukaryota		V3173-01
comment | self | clump of diopatra	transect	Polychaeta	25.88	3173	00:54:51:12	 	36.847485	-121.84478	2494442	3.16	2008-02-14 17:54:31.0	Ventana	33.812	00:54:38:11	9.871	Polychaeta				Animalia		Annelida					Eukaryota		V3173-01
comment | self | clump of diopatra	transect	Polychaeta	25.83	3173	00:54:55:12	 	36.847485	-121.84478	2494443	3.16	2008-02-14 17:54:35.0	Ventana	33.812	00:54:41:13	9.871	Polychaeta				Animalia		Annelida					Eukaryota		V3173-01
comment | self | clump of diopatra	transect	Polychaeta	25.83	3173	00:54:55:12	 	36.847485	-121.84478	2494444	3.16	2008-02-14 17:54:35.0	Ventana	33.812	00:54:42:09	9.871	Polychaeta				Animalia		Annelida					Eukaryota		V3173-01
comment | self | clump of diopatra	transect	Polychaeta	25.67	3173	00:54:57:11	 	36.847485	-121.84478	2494445	3.16	2008-02-14 17:54:37.0	Ventana	33.812	00:54:42:19	9.871	Polychaeta				Animalia		Annelida					Eukaryota		V3173-01
comment | self | clump of diopatra	transect	Polychaeta	25.67	3173	00:54:57:11	 	36.847485	-121.84478	2494446	3.16	2008-02-14 17:54:37.0	Ventana	33.812	00:54:43:05	9.871	Polychaeta				Animalia		Annelida					Eukaryota		V3173-01
comment | self | clump of diopatra	transect	Polychaeta	25.63	3173	00:55:07:12	 	36.847485	-121.84478	2494447	3.15	2008-02-14 17:54:47.0	Ventana	33.817	00:54:52:22	9.863	Polychaeta				Animalia		Annelida					Eukaryota		V3173-01
comment | self | clump of diopatra	transect	Polychaeta	25.63	3173	00:55:07:12	 	36.847485	-121.84478	2494448	3.15	2008-02-14 17:54:47.0	Ventana	33.817	00:54:53:15	9.863	Polychaeta				Animalia		Annelida					Eukaryota		V3173-01
comment | self | clump of diopatra	transect	Polychaeta	25.63	3173	00:55:07:12	 	36.847485	-121.84478	2494449	3.15	2008-02-14 17:54:47.0	Ventana	33.817	00:54:54:04	9.863	Polychaeta				Animalia		Annelida					Eukaryota		V3173-01
comment | self | clump of diopatra	transect	Polychaeta	25.77	3173	00:55:09:11	 	36.847485	-121.84478	2494450	3.15	2008-02-14 17:54:49.0	Ventana	33.817	00:54:55:08	9.863	Polychaeta				Animalia		Annelida					Eukaryota		V3173-01
comment | self | clump of diopatra	transect	Polychaeta	25.77	3173	00:55:09:11	 	36.847485	-121.84478	2494451	3.15	2008-02-14 17:54:49.0	Ventana	33.817	00:54:56:09	9.863	Polychaeta				Animalia		Annelida					Eukaryota		V3173-01
comment | self | clump of diopatra	transect	Polychaeta	25.59	3173	00:55:19:11	 	36.847485	-121.84478	2494452	3.16	2008-02-14 17:54:59.0	Ventana	33.813	00:55:05:00	9.872	Polychaeta				Animalia		Annelida					Eukaryota		V3173-01
comment | self | clump of diopatra	transect	Polychaeta	25.59	3173	00:55:19:11	 	36.847485	-121.84478	2494453	3.16	2008-02-14 17:54:59.0	Ventana	33.813	00:55:05:16	9.872	Polychaeta				Animalia		Annelida					Eukaryota		V3173-01
comment | self | clump of diopatra	transect	Polychaeta	25.65	3173	00:55:21:11	 	36.847485	-121.84478	2494454	3.16	2008-02-14 17:55:01.0	Ventana	33.813	00:55:08:14	9.872	Polychaeta				Animalia		Annelida					Eukaryota		V3173-01
comment | self | clump of diopatra	transect	Polychaeta	25.95	3173	00:55:25:10	 	36.847485	-121.84478	2494455	3.16	2008-02-14 17:55:05.0	Ventana	33.813	00:55:11:19	9.872	Polychaeta				Animalia		Annelida					Eukaryota		V3173-01
comment | self | clump of diopatra	transect	Polychaeta	26.01	3173	00:55:27:11	 	36.847485	-121.84478	2494456	3.17	2008-02-14 17:55:08.0	Ventana	33.814	00:55:12:27	9.869	Polychaeta				Animalia		Annelida					Eukaryota		V3173-01
comment | self | clump of diopatra	transect	Polychaeta	25.93	3173	00:55:29:11	 	36.847485	-121.84478	2494457	3.17	2008-02-14 17:55:10.0	Ventana	33.814	00:55:16:11	9.869	Polychaeta				Animalia		Annelida					Eukaryota		V3173-01
comment | self | clump of diopatra	transect	Polychaeta	25.91	3173	00:55:31:10	 	36.847485	-121.84478	2494458	3.17	2008-02-14 17:55:12.0	Ventana	33.814	00:55:17:03	9.869	Polychaeta				Animalia		Annelida					Eukaryota		V3173-01
comment | self | clump of diopatra	transect	Polychaeta	25.91	3173	00:55:31:10	 	36.847485	-121.84478	2494459	3.17	2008-02-14 17:55:12.0	Ventana	33.814	00:55:17:16	9.869	Polychaeta				Animalia		Annelida					Eukaryota		V3173-01
comment | self | clump of diopatra	transect	Polychaeta	25.91	3173	00:55:33:10	 	36.847485	-121.84478	2494460	3.17	2008-02-14 17:55:14.0	Ventana	33.814	00:55:18:18	9.869	Polychaeta				Animalia		Annelida					Eukaryota		V3173-01
comment | self | clump of diopatra	transect	Polychaeta	25.91	3173	00:55:33:10	 	36.847485	-121.84478	2494461	3.17	2008-02-14 17:55:14.0	Ventana	33.814	00:55:19:10	9.869	Polychaeta				Animalia		Annelida					Eukaryota		V3173-01
comment | self | clump of diopatra	transect	Polychaeta	25.81	3173	00:55:35:11	 	36.847485	-121.84478	2494462	3.17	2008-02-14 17:55:16.0	Ventana	33.814	00:55:21:23	9.869	Polychaeta				Animalia		Annelida					Eukaryota		V3173-01
comment | self | clump of diopatra	transect	Polychaeta	25.81	3173	00:55:35:11	 	36.847485	-121.84478	2494463	3.17	2008-02-14 17:55:16.0	Ventana	33.814	00:55:22:05	9.869	Polychaeta				Animalia		Annelida					Eukaryota		V3173-01
comment | self | clump of diopatra	transect	Polychaeta	25.7	3173	00:55:37:10	 	36.847485	-121.84478	2494464	3.17	2008-02-14 17:55:18.0	Ventana	33.814	00:55:23:20	9.869	Polychaeta				Animalia		Annelida					Eukaryota		V3173-01
comment | self | clump of diopatra	transect	Polychaeta	25.76	3173	00:55:39:10	 	36.847485	-121.84478	2494466	3.17	2008-02-14 17:55:20.0	Ventana	33.814	00:55:25:23	9.869	Polychaeta				Animalia		Annelida					Eukaryota		V3173-01
comment | self | clump of diopatra	transect	Polychaeta	25.76	3173	00:55:39:10	 	36.847485	-121.84478	2494467	3.17	2008-02-14 17:55:20.0	Ventana	33.814	00:55:25:23	9.869	Polychaeta				Animalia		Annelida					Eukaryota		V3173-01
comment | self | clump of diopatra	transect	Polychaeta	25.76	3173	00:55:49:10	 	36.847485	-121.84478	2494468	3.14	2008-02-14 17:55:30.0	Ventana	33.822	00:55:36:11	9.852	Polychaeta				Animalia		Annelida					Eukaryota		V3173-01
comment | self | clump of diopatra	transect	Polychaeta	25.83	3173	00:55:51:10	 	36.847485	-121.84478	2494469	3.14	2008-02-14 17:55:32.0	Ventana	33.822	00:55:37:03	9.852	Polychaeta				Animalia		Annelida					Eukaryota		V3173-01
comment | self | clump of diopatra	transect	Polychaeta	25.83	3173	00:55:51:10	 	36.847485	-121.84478	2494470	3.14	2008-02-14 17:55:32.0	Ventana	33.822	00:55:38:24	9.852	Polychaeta				Animalia		Annelida					Eukaryota		V3173-01
comment | self | clump of diopatra	transect	Polychaeta	26.08	3173	00:55:53:10	 	36.847485	-121.84478	2494471	3.14	2008-02-14 17:55:34.0	Ventana	33.822	00:55:39:29	9.852	Polychaeta				Animalia		Annelida					Eukaryota		V3173-01
comment | self | clump of diopatra	transect	Polychaeta	26.38	3173	00:55:55:10	 	36.847485	-121.84478	2494472	3.14	2008-02-14 17:55:36.0	Ventana	33.822	00:55:42:08	9.852	Polychaeta				Animalia		Annelida					Eukaryota		V3173-01
comment | self | clump of diopatra	transect	Polychaeta	25.54	3173	00:56:01:10	 	36.847485	-121.84478	2494474	3.14	2008-02-14 17:55:42.0	Ventana	33.82	00:55:47:11	9.856	Polychaeta				Animalia		Annelida					Eukaryota		V3173-01
comment | self | clump of diopatra	transect	Polychaeta	25.54	3173	00:56:01:10	 	36.847485	-121.84478	2494475	3.14	2008-02-14 17:55:42.0	Ventana	33.82	00:55:47:18	9.856	Polychaeta				Animalia		Annelida					Eukaryota		V3173-01
comment | self | clump of diopatra	transect	Polychaeta	25.54	3173	00:56:01:10	 	36.847485	-121.84478	2494476	3.14	2008-02-14 17:55:42.0	Ventana	33.82	00:55:48:04	9.856	Polychaeta				Animalia		Annelida					Eukaryota		V3173-01
comment | self | clump of diopatra	transect	Polychaeta	25.54	3173	00:56:01:10	 	36.847485	-121.84478	2494477	3.14	2008-02-14 17:55:42.0	Ventana	33.82	00:55:48:25	9.856	Polychaeta				Animalia		Annelida					Eukaryota		V3173-01
comment | self | clump of diopatra	transect	Polychaeta	26.05	3173	00:56:09:09	 	36.847485	-121.84478	2494478	3.14	2008-02-14 17:55:50.0	Ventana	33.82	00:55:55:15	9.856	Polychaeta				Animalia		Annelida					Eukaryota		V3173-01
comment | self | clump of diopatra	transect	Polychaeta	25.77	3173	00:56:11:09	 	36.847485	-121.84478	2494479	3.14	2008-02-14 17:55:52.0	Ventana	33.82	00:55:58:04	9.856	Polychaeta				Animalia		Annelida					Eukaryota		V3173-01
comment | self | clump of diopatra	transect	Polychaeta	25.71	3173	00:56:15:09	 	36.847485	-121.84478	2494480	3.14	2008-02-14 17:55:56.0	Ventana	33.821	00:56:01:26	9.856	Polychaeta				Animalia		Annelida					Eukaryota		V3173-01
comment | self | clump of diopatra	transect	Polychaeta	26.82	3173	00:56:21:24	 	36.847485	-121.84478	2494481	3.14	2008-02-14 17:56:02.0	Ventana	33.821	00:56:07:27	9.856	Polychaeta				Animalia		Annelida					Eukaryota		V3173-01
comment | self | clump of diopatra	transect	Polychaeta	25.86	3173	00:56:27:24	 	36.847485	-121.84478	2494482	3.15	2008-02-14 17:56:08.0	Ventana	33.817	00:56:13:14	9.864	Polychaeta				Animalia		Annelida					Eukaryota		V3173-01
comment | self | clump of diopatra	transect	Polychaeta	26.13	3173	00:56:31:23	 	36.847485	-121.84478	2494483	3.15	2008-02-14 17:56:12.0	Ventana	33.817	00:56:18:08	9.864	Polychaeta				Animalia		Annelida					Eukaryota		V3173-01
comment | self | clump of diopatra	transect	Polychaeta	26.18	3173	00:56:35:24	 	36.847485	-121.84478	2494484	3.15	2008-02-14 17:56:16.0	Ventana	33.817	00:56:22:00	9.864	Polychaeta				Animalia		Annelida					Eukaryota		V3173-01
comment | self | clump of diopatra	transect	Polychaeta	26.14	3173	00:56:37:23	 	36.847485	-121.84478	2494485	3.15	2008-02-14 17:56:18.0	Ventana	33.817	00:56:23:22	9.864	Polychaeta				Animalia		Annelida					Eukaryota		V3173-01
comment | self | clump of diopatra	transect	Polychaeta	26.14	3173	00:56:37:23	 	36.847485	-121.84478	2494486	3.15	2008-02-14 17:56:18.0	Ventana	33.817	00:56:24:02	9.864	Polychaeta				Animalia		Annelida					Eukaryota		V3173-01
comment | self | clump of diopatra	transect	Polychaeta	25.88	3173	00:56:39:23	 	36.847485	-121.84478	2494487	3.15	2008-02-14 17:56:20.0	Ventana	33.817	00:56:25:01	9.864	Polychaeta				Animalia		Annelida					Eukaryota		V3173-01
comment | self | clump of diopatra	transect	Polychaeta	25.88	3173	00:56:39:23	 	36.847485	-121.84478	2494488	3.15	2008-02-14 17:56:20.0	Ventana	33.817	00:56:26:14	9.864	Polychaeta				Animalia		Annelida					Eukaryota		V3173-01
comment | self | clump of diopatra	transect	Polychaeta	25.83	3173	00:56:41:24	 	36.847485	-121.84478	2494489	3.15	2008-02-14 17:56:22.0	Ventana	33.817	00:56:27:28	9.864	Polychaeta				Animalia		Annelida					Eukaryota		V3173-01
comment | self | clump of diopatra	transect	Polychaeta	26.01	3173	00:56:43:23	 	36.847485	-121.84478	2494490	3.15	2008-02-14 17:56:24.0	Ventana	33.815	00:56:29:05	9.867	Polychaeta				Animalia		Annelida					Eukaryota		V3173-01
comment | self | clump of diopatra	transect	Polychaeta	26.01	3173	00:56:43:23	 	36.847485	-121.84478	2494491	3.15	2008-02-14 17:56:24.0	Ventana	33.815	00:56:30:17	9.867	Polychaeta				Animalia		Annelida					Eukaryota		V3173-01
comment | self | clump of diopatra	transect	Polychaeta	26.25	3173	00:56:47:23	 	36.847485	-121.84478	2494492	3.15	2008-02-14 17:56:28.0	Ventana	33.815	00:56:33:02	9.867	Polychaeta				Animalia		Annelida					Eukaryota		V3173-01
comment | self | clump of diopatra	transect	Polychaeta	26.25	3173	00:56:47:23	 	36.847485	-121.84478	2494493	3.15	2008-02-14 17:56:28.0	Ventana	33.815	00:56:33:19	9.867	Polychaeta				Animalia		Annelida					Eukaryota		V3173-01
comment | self | clump of diopatra	transect	Polychaeta	26.25	3173	00:56:47:23	 	36.847485	-121.84478	2494494	3.15	2008-02-14 17:56:28.0	Ventana	33.815	00:56:34:10	9.867	Polychaeta				Animalia		Annelida					Eukaryota		V3173-01
comment | self | clump of diopatra	transect	Polychaeta	25.99	3173	00:56:49:23	 	36.847485	-121.84478	2494495	3.15	2008-02-14 17:56:30.0	Ventana	33.815	00:56:35:26	9.867	Polychaeta				Animalia		Annelida					Eukaryota		V3173-01
comment | self | clump of diopatra	transect	Polychaeta	25.99	3173	00:56:49:23	 	36.847485	-121.84478	2494496	3.15	2008-02-14 17:56:30.0	Ventana	33.815	00:56:36:16	9.867	Polychaeta				Animalia		Annelida					Eukaryota		V3173-01
comment | self | clump of diopatra	transect	Polychaeta	25.86	3173	00:56:51:23	 	36.847485	-121.84478	2494497	3.15	2008-02-14 17:56:32.0	Ventana	33.815	00:56:37:28	9.867	Polychaeta				Animalia		Annelida					Eukaryota		V3173-01
comment | self | clump of diopatra	transect	Polychaeta	25.84	3173	00:56:53:23	 	36.847485	-121.84478	2494498	3.15	2008-02-14 17:56:34.0	Ventana	33.815	00:56:39:11	9.867	Polychaeta				Animalia		Annelida					Eukaryota		V3173-01
near | benthos | nil	transect	Chrysaora fuscescens	26.24	3173	00:56:55:23	 	36.847485	-121.84478	2494499	3.15	2008-02-14 17:56:36.0	Ventana	33.815	00:56:42:03	9.867	Scyphozoa	Pelagiidae	Chrysaora		Animalia	Semaeostomeae	Cnidaria	Chrysaora fuscescens				Eukaryota		V3173-01
comment | self | clump of diopatra	transect	Polychaeta	25.8	3173	00:57:01:23	 	36.847485	-121.84478	2494500	3.16	2008-02-14 17:56:42.0	Ventana	33.813	00:56:47:16	9.871	Polychaeta				Animalia		Annelida					Eukaryota		V3173-01
comment | self | clump of diopatra	transect	Polychaeta	25.79	3173	00:57:03:23	 	36.847485	-121.84478	2494501	3.16	2008-02-14 17:56:44.0	Ventana	33.813	00:56:50:07	9.871	Polychaeta				Animalia		Annelida					Eukaryota		V3173-01
comment | self | clump of diopatra	transect	Polychaeta	25.97	3173	00:57:09:23	 	36.847485	-121.84478	2494504	3.16	2008-02-14 17:56:50.0	Ventana	33.813	00:56:56:20	9.871	Polychaeta				Animalia		Annelida					Eukaryota		V3173-01
comment | self | clump of diopatra	transect	Polychaeta	25.97	3173	00:57:09:23	 	36.847485	-121.84478	2494505	3.16	2008-02-14 17:56:50.0	Ventana	33.813	00:56:57:09	9.871	Polychaeta				Animalia		Annelida					Eukaryota		V3173-01
comment | self | clump of diopatra	transect	Polychaeta	25.97	3173	00:57:13:22	 	36.847485	-121.84478	2494506	3.16	2008-02-14 17:56:54.0	Ventana	33.815	00:56:59:13	9.868	Polychaeta				Animalia		Annelida					Eukaryota		V3173-01
comment | self | clump of diopatra	transect	Polychaeta	25.97	3173	00:57:13:22	 	36.847485	-121.84478	2494507	3.16	2008-02-14 17:56:54.0	Ventana	33.815	00:57:00:29	9.868	Polychaeta				Animalia		Annelida					Eukaryota		V3173-01
comment | self | clump of diopatra	transect	Polychaeta	26.22	3173	00:57:15:23	 	36.847485	-121.84478	2494508	3.16	2008-02-14 17:56:56.0	Ventana	33.815	00:57:02:16	9.868	Polychaeta				Animalia		Annelida					Eukaryota		V3173-01
comment | self | clump of diopatra	transect	Polychaeta	26.29	3173	00:57:17:22	 	36.847485	-121.84478	2494509	3.16	2008-02-14 17:56:58.0	Ventana	33.815	00:57:03:15	9.868	Polychaeta				Animalia		Annelida					Eukaryota		V3173-01
comment | self | clump of diopatra	transect	Polychaeta	26.05	3173	00:57:19:22	 	36.847485	-121.84478	2494510	3.16	2008-02-14 17:57:00.0	Ventana	33.815	00:57:07:02	9.868	Polychaeta				Animalia		Annelida					Eukaryota		V3173-01
comment | self | clump of diopatra	transect	Polychaeta	25.79	3173	00:57:21:22	 	36.847485	-121.84478	2494511	3.16	2008-02-14 17:57:02.0	Ventana	33.815	00:57:07:13	9.868	Polychaeta				Animalia		Annelida					Eukaryota		V3173-01
comment | self | clump of diopatra	transect	Polychaeta	25.89	3173	00:57:25:22	 	36.847485	-121.84478	2494512	3.16	2008-02-14 17:57:06.0	Ventana	33.815	00:57:11:21	9.868	Polychaeta				Animalia		Annelida					Eukaryota		V3173-01
comment | self | clump of diopatra	transect	Polychaeta	25.89	3173	00:57:25:22	 	36.847485	-121.84478	2494513	3.16	2008-02-14 17:57:06.0	Ventana	33.815	00:57:12:04	9.868	Polychaeta				Animalia		Annelida					Eukaryota		V3173-01
comment | self | clump of diopatra	transect	Polychaeta	26.15	3173	00:57:27:22	 	36.847485	-121.84478	2494514	3.16	2008-02-14 17:57:08.0	Ventana	33.813	00:57:13:19	9.873	Polychaeta				Animalia		Annelida					Eukaryota		V3173-01
comment | self | clump of diopatra	transect	Polychaeta	26.51	3173	00:57:29:22	 	36.847485	-121.84478	2494515	3.16	2008-02-14 17:57:10.0	Ventana	33.813	00:57:16:06	9.873	Polychaeta				Animalia		Annelida					Eukaryota		V3173-01
comment | self | clump of diopatra	transect	Polychaeta	25.9	3173	00:57:33:22	 	36.847485	-121.84478	2494517	3.16	2008-02-14 17:57:14.0	Ventana	33.813	00:57:20:11	9.873	Polychaeta				Animalia		Annelida					Eukaryota		V3173-01
comment | self | clump of diopatra	transect	Polychaeta	25.81	3173	00:57:38:06	 	36.847485	-121.84478	2494518	3.16	2008-02-14 17:57:18.0	Ventana	33.813	00:57:24:12	9.873	Polychaeta				Animalia		Annelida					Eukaryota		V3173-01
comment | self | clump of diopatra	transect	Polychaeta	25.81	3173	00:57:38:06	 	36.847485	-121.84478	2494519	3.16	2008-02-14 17:57:18.0	Ventana	33.813	00:57:24:25	9.873	Polychaeta				Animalia		Annelida					Eukaryota		V3173-01
comment | self | clump of diopatra	transect	Polychaeta	26.56	3173	00:57:42:07	 	36.847485	-121.84478	2494520	3.16	2008-02-14 17:57:22.0	Ventana	33.813	00:57:27:21	9.873	Polychaeta				Animalia		Annelida					Eukaryota		V3173-01
comment | self | clump of diopatra	transect	Polychaeta	26.37	3173	00:57:44:06	 	36.847485	-121.84478	2494521	3.16	2008-02-14 17:57:24.0	Ventana	33.815	00:57:31:04	9.868	Polychaeta				Animalia		Annelida					Eukaryota		V3173-01
comment | self | clump of diopatra	transect	Polychaeta	25.84	3173	00:57:48:07	 	36.847485	-121.84478	2494525	3.16	2008-02-14 17:57:28.0	Ventana	33.815	00:57:35:07	9.868	Polychaeta				Animalia		Annelida					Eukaryota		V3173-01
comment | self | clump of diopatra	transect	Polychaeta	25.88	3173	00:57:52:06	 	36.847485	-121.84478	2494527	3.16	2008-02-14 17:57:32.0	Ventana	33.815	00:57:38:21	9.868	Polychaeta				Animalia		Annelida					Eukaryota		V3173-01
near | benthos | nil	transect	Chrysaora fuscescens	25.86	3173	00:58:02:06	 	36.847485	-121.84478	2494528	3.16	2008-02-14 17:57:42.0	Ventana	33.814	00:57:47:18	9.872	Scyphozoa	Pelagiidae	Chrysaora		Animalia	Semaeostomeae	Cnidaria	Chrysaora fuscescens				Eukaryota		V3173-01
near | benthos | nil	transect	Chrysaora fuscescens	26.02	3173	00:58:08:06	 	36.847485	-121.84478	2494529	3.16	2008-02-14 17:57:48.0	Ventana	33.814	00:57:54:12	9.872	Scyphozoa	Pelagiidae	Chrysaora		Animalia	Semaeostomeae	Cnidaria	Chrysaora fuscescens				Eukaryota		V3173-01
comment | self | clump of diopatra	transect	Polychaeta	26.52	3173	00:58:12:05	 	36.847485	-121.84478	2494530	3.16	2008-02-14 17:57:52.0	Ventana	33.814	00:57:58:03	9.872	Polychaeta				Animalia		Annelida					Eukaryota		V3173-01
comment | self | clump of diopatra	transect	Polychaeta	26.52	3173	00:58:12:05	 	36.847485	-121.84478	2494531	3.16	2008-02-14 17:57:52.0	Ventana	33.814	00:57:58:12	9.872	Polychaeta				Animalia		Annelida					Eukaryota		V3173-01
comment | self | clump of diopatra	transect	Polychaeta	26.52	3173	00:58:12:05	 	36.847485	-121.84478	2494532	3.16	2008-02-14 17:57:52.0	Ventana	33.814	00:57:58:24	9.872	Polychaeta				Animalia		Annelida					Eukaryota		V3173-01
comment | self | clump of diopatra	transect	Polychaeta	26.06	3173	00:58:14:05	 	36.847485	-121.84478	2494533	3.17	2008-02-14 17:57:54.0	Ventana	33.811	00:57:59:13	9.876	Polychaeta				Animalia		Annelida					Eukaryota		V3173-01
comment | self | clump of diopatra	transect	Polychaeta	26.06	3173	00:58:14:05	 	36.847485	-121.84478	2494534	3.17	2008-02-14 17:57:54.0	Ventana	33.811	00:58:01:03	9.876	Polychaeta				Animalia		Annelida					Eukaryota		V3173-01
comment | self | clump of diopatra	transect	Polychaeta	25.79	3173	00:58:16:06	 	36.847485	-121.84478	2494535	3.17	2008-02-14 17:57:56.0	Ventana	33.811	00:58:01:17	9.876	Polychaeta				Animalia		Annelida					Eukaryota		V3173-01
comment | self | clump of diopatra	transect	Polychaeta	25.88	3173	00:58:18:05	 	36.847485	-121.84478	2494536	3.17	2008-02-14 17:57:58.0	Ventana	33.811	00:58:04:01	9.876	Polychaeta				Animalia		Annelida					Eukaryota		V3173-01
comment | self | clump of diopatra	transect	Polychaeta	26.25	3173	00:58:20:05	 	36.847485	-121.84478	2494537	3.17	2008-02-14 17:58:00.0	Ventana	33.811	00:58:05:16	9.876	Polychaeta				Animalia		Annelida					Eukaryota		V3173-01
comment | self | clump of diopatra	transect	Polychaeta	26.25	3173	00:58:20:05	 	36.847485	-121.84478	2494538	3.17	2008-02-14 17:58:00.0	Ventana	33.811	00:58:06:24	9.876	Polychaeta				Animalia		Annelida					Eukaryota		V3173-01
comment | self | clump of diopatra	transect	Polychaeta	26.67	3173	00:58:24:05	 	36.847485	-121.84478	2494539	3.17	2008-02-14 17:58:04.0	Ventana	33.811	00:58:09:27	9.876	Polychaeta				Animalia		Annelida					Eukaryota		V3173-01
comment | self | clump of diopatra	transect	Polychaeta	26.24	3173	00:58:26:05	 	36.847485	-121.84478	2494540	3.17	2008-02-14 17:58:06.0	Ventana	33.811	00:58:11:23	9.876	Polychaeta				Animalia		Annelida					Eukaryota		V3173-01
comment | self | clump of diopatra	transect	Polychaeta	25.85	3173	00:58:28:05	 	36.847485	-121.84478	2494541	3.17	2008-02-14 17:58:08.0	Ventana	33.813	00:58:14:11	9.872	Polychaeta				Animalia		Annelida					Eukaryota		V3173-01
comment | self | clump of diopatra	transect	Polychaeta	25.85	3173	00:58:28:05	 	36.847485	-121.84478	2494542	3.17	2008-02-14 17:58:08.0	Ventana	33.813	00:58:15:07	9.872	Polychaeta				Animalia		Annelida					Eukaryota		V3173-01
comment | self | clump of diopatra	transect	Polychaeta	25.78	3173	00:58:30:05	 	36.847485	-121.84478	2494543	3.17	2008-02-14 17:58:11.0	Ventana	33.813	00:58:16:15	9.872	Polychaeta				Animalia		Annelida					Eukaryota		V3173-01
comment | self | clump of diopatra	transect	Polychaeta	26.0	3173	00:58:38:05	 	36.847485	-121.84478	2494544	3.17	2008-02-14 17:58:19.0	Ventana	33.813	00:58:24:24	9.872	Polychaeta				Animalia		Annelida					Eukaryota		V3173-01
comment | self | clump of diopatra	transect	Polychaeta	26.27	3173	00:58:50:05	 	36.847485	-121.84478	2494545	3.17	2008-02-14 17:58:31.0	Ventana	33.812	00:58:35:26	9.875	Polychaeta				Animalia		Annelida					Eukaryota		V3173-01
comment | self | clump of diopatra	transect	Polychaeta	26.27	3173	00:58:50:05	 	36.847485	-121.84478	2494546	3.17	2008-02-14 17:58:31.0	Ventana	33.812	00:58:36:18	9.875	Polychaeta				Animalia		Annelida					Eukaryota		V3173-01
comment | self | clump of diopatra	transect	Polychaeta	25.83	3173	00:58:52:04	 	36.847485	-121.84478	2494547	3.17	2008-02-14 17:58:33.0	Ventana	33.812	00:58:38:12	9.875	Polychaeta				Animalia		Annelida					Eukaryota		V3173-01
comment | self | clump of diopatra	transect	Polychaeta	26.27	3173	00:58:56:04	 	36.847485	-121.84478	2494548	3.17	2008-02-14 17:58:37.0	Ventana	33.812	00:58:41:27	9.875	Polychaeta				Animalia		Annelida					Eukaryota		V3173-01
comment | self | clump of diopatra	transect	Polychaeta	26.27	3173	00:58:56:04	 	36.847485	-121.84478	2494549	3.17	2008-02-14 17:58:37.0	Ventana	33.812	00:58:42:16	9.875	Polychaeta				Animalia		Annelida					Eukaryota		V3173-01
comment | self | clump of diopatra	transect	Polychaeta	26.27	3173	00:58:56:04	 	36.847485	-121.84478	2494550	3.17	2008-02-14 17:58:37.0	Ventana	33.812	00:58:43:04	9.875	Polychaeta				Animalia		Annelida					Eukaryota		V3173-01
comment | self | clump of diopatra	transect	Polychaeta	26.41	3173	00:59:00:04	 	36.847485	-121.84478	2494551	3.17	2008-02-14 17:58:41.0	Ventana	33.814	00:58:46:04	9.869	Polychaeta				Animalia		Annelida					Eukaryota		V3173-01
comment | self | clump of diopatra	transect	Polychaeta	26.41	3173	00:59:00:04	 	36.847485	-121.84478	2494552	3.17	2008-02-14 17:58:41.0	Ventana	33.814	00:58:47:04	9.869	Polychaeta				Animalia		Annelida					Eukaryota		V3173-01
comment | self | clump of diopatra	transect	Polychaeta	26.14	3173	00:59:02:04	 	36.847485	-121.84478	2494553	3.17	2008-02-14 17:58:43.0	Ventana	33.814	00:58:47:25	9.869	Polychaeta				Animalia		Annelida					Eukaryota		V3173-01
comment | self | clump of diopatra	transect	Polychaeta	26.14	3173	00:59:02:04	 	36.847485	-121.84478	2494554	3.17	2008-02-14 17:58:43.0	Ventana	33.814	00:58:49:20	9.869	Polychaeta				Animalia		Annelida					Eukaryota		V3173-01
comment | self | clump of diopatra	transect	Polychaeta	26.21	3173	00:59:08:04	 	36.847485	-121.84478	2494556	3.17	2008-02-14 17:58:49.0	Ventana	33.814	00:58:54:07	9.869	Polychaeta				Animalia		Annelida					Eukaryota		V3173-01
comment | self | clump of diopatra	transect	Polychaeta	26.21	3173	00:59:08:04	 	36.847485	-121.84478	2494557	3.17	2008-02-14 17:58:49.0	Ventana	33.814	00:58:54:26	9.869	Polychaeta				Animalia		Annelida					Eukaryota		V3173-01
comment | self | clump of diopatra	transect	Polychaeta	26.36	3173	00:59:10:04	 	36.847485	-121.84478	2494558	3.17	2008-02-14 17:58:51.0	Ventana	33.814	00:58:56:08	9.869	Polychaeta				Animalia		Annelida					Eukaryota		V3173-01
comment | self | clump of diopatra	transect	Polychaeta	26.36	3173	00:59:10:04	 	36.847485	-121.84478	2494559	3.17	2008-02-14 17:58:51.0	Ventana	33.814	00:58:56:26	9.869	Polychaeta				Animalia		Annelida					Eukaryota		V3173-01
comment | self | clump of diopatra	transect	Polychaeta	26.21	3173	00:59:12:04	 	36.847485	-121.84478	2494560	3.16	2008-02-14 17:58:53.0	Ventana	33.818	00:58:58:00	9.861	Polychaeta				Animalia		Annelida					Eukaryota		V3173-01
population-quantity | self | 5	transect	Asteroidea	26.21	3173	00:59:12:04	 	36.847485	-121.84478	2494561	3.16	2008-02-14 17:58:53.0	Ventana	33.818	00:58:58:02	9.861					Animalia		Echinodermata		Asteroidea			Eukaryota		V3173-01
population-quantity | self | 2	transect	Asteroidea	25.89	3173	00:59:14:04	 	36.847485	-121.84478	2494562	3.16	2008-02-14 17:58:55.0	Ventana	33.818	00:58:59:28	9.861					Animalia		Echinodermata		Asteroidea			Eukaryota		V3173-01
comment | self | clump of diopatra	transect	Polychaeta	25.89	3173	00:59:14:04	 	36.847485	-121.84478	2494563	3.16	2008-02-14 17:58:55.0	Ventana	33.818	00:59:01:14	9.861	Polychaeta				Animalia		Annelida					Eukaryota		V3173-01
comment | self | clump of diopatra	transect	Polychaeta	25.88	3173	00:59:16:03	 	36.847485	-121.84478	2494564	3.16	2008-02-14 17:58:57.0	Ventana	33.818	00:59:03:22	9.861	Polychaeta				Animalia		Annelida					Eukaryota		V3173-01
comment | self | clump of diopatra	transect	Polychaeta	26.17	3173	00:59:18:04	 	36.847485	-121.84478	2494565	3.16	2008-02-14 17:58:59.0	Ventana	33.818	00:59:05:10	9.861	Polychaeta				Animalia		Annelida					Eukaryota		V3173-01
comment | self | clump of diopatra	transect	Polychaeta	26.17	3173	00:59:18:04	 	36.847485	-121.84478	2494566	3.16	2008-02-14 17:58:59.0	Ventana	33.818	00:59:05:20	9.861	Polychaeta				Animalia		Annelida					Eukaryota		V3173-01
comment | self | clump of diopatra	transect	Polychaeta	26.3	3173	00:59:24:18	 	36.847485	-121.84478	2494567	3.16	2008-02-14 17:59:05.0	Ventana	33.818	00:59:10:20	9.861	Polychaeta				Animalia		Annelida					Eukaryota		V3173-01
comment | self | clump of diopatra	transect	Polychaeta	26.3	3173	00:59:24:18	 	36.847485	-121.84478	2494568	3.16	2008-02-14 17:59:05.0	Ventana	33.818	00:59:11:11	9.861	Polychaeta				Animalia		Annelida					Eukaryota		V3173-01
comment | self | clump of diopatra	transect	Polychaeta	25.93	3173	00:59:26:18	 	36.847485	-121.84478	2494569	3.16	2008-02-14 17:59:07.0	Ventana	33.818	00:59:12:13	9.861	Polychaeta				Animalia		Annelida					Eukaryota		V3173-01
comment | self | clump of diopatra	transect	Polychaeta	25.93	3173	00:59:26:18	 	36.847485	-121.84478	2494570	3.16	2008-02-14 17:59:07.0	Ventana	33.818	00:59:13:01	9.861	Polychaeta				Animalia		Annelida					Eukaryota		V3173-01
comment | self | clump of diopatra	transect	Polychaeta	25.92	3173	00:59:28:18	 	36.847485	-121.84478	2494571	3.15	2008-02-14 17:59:09.0	Ventana	33.82	00:59:14:12	9.856	Polychaeta				Animalia		Annelida					Eukaryota		V3173-01
comment | self | clump of diopatra	transect	Polychaeta	26.17	3173	00:59:30:18	 	36.847485	-121.84478	2494572	3.15	2008-02-14 17:59:11.0	Ventana	33.82	00:59:15:24	9.856	Polychaeta				Animalia		Annelida					Eukaryota		V3173-01
comment | self | clump of diopatra	transect	Polychaeta	26.36	3173	00:59:32:18	 	36.847485	-121.84478	2494573	3.15	2008-02-14 17:59:13.0	Ventana	33.82	00:59:18:21	9.856	Polychaeta				Animalia		Annelida					Eukaryota		V3173-01
comment | self | clump of diopatra	transect	Polychaeta	26.27	3173	00:59:38:18	 	36.847485	-121.84478	2494574	3.15	2008-02-14 17:59:19.0	Ventana	33.82	00:59:23:25	9.856	Polychaeta				Animalia		Annelida					Eukaryota		V3173-01
comment | self | clump of diopatra	transect	Polychaeta	26.14	3173	00:59:46:17	 	36.847485	-121.84478	2494576	3.14	2008-02-14 17:59:27.0	Ventana	33.819	00:59:32:13	9.858	Polychaeta				Animalia		Annelida					Eukaryota		V3173-01
comment | self | clump of diopatra	transect	Polychaeta	26.14	3173	00:59:46:17	 	36.847485	-121.84478	2494577	3.14	2008-02-14 17:59:27.0	Ventana	33.819	00:59:32:23	9.858	Polychaeta				Animalia		Annelida					Eukaryota		V3173-01
comment | self | clump of diopatra	transect	Polychaeta	26.03	3173	00:59:50:18	 	36.847485	-121.84478	2494578	3.14	2008-02-14 17:59:31.0	Ventana	33.819	00:59:36:14	9.858	Polychaeta				Animalia		Annelida					Eukaryota		V3173-01
comment | self | clump of diopatra	transect	Polychaeta	26.03	3173	00:59:50:18	 	36.847485	-121.84478	2494579	3.14	2008-02-14 17:59:31.0	Ventana	33.819	00:59:37:13	9.858	Polychaeta				Animalia		Annelida					Eukaryota		V3173-01
comment | self | clump of diopatra	transect	Polychaeta	25.93	3173	00:59:52:17	 	36.847485	-121.84478	2494580	3.14	2008-02-14 17:59:33.0	Ventana	33.819	00:59:37:29	9.858	Polychaeta				Animalia		Annelida					Eukaryota		V3173-01
comment | self | clump of diopatra	transect	Polychaeta	26.22	3173	00:59:54:17	 	36.847485	-121.84478	2494581	3.14	2008-02-14 17:59:35.0	Ventana	33.819	00:59:41:10	9.858	Polychaeta				Animalia		Annelida					Eukaryota		V3173-01
comment | self | clump of diopatra	transect	Polychaeta	26.68	3173	00:59:56:18	 	36.847485	-121.84478	2494582	3.14	2008-02-14 17:59:37.0	Ventana	33.819	00:59:42:08	9.858	Polychaeta				Animalia		Annelida					Eukaryota		V3173-01
comment | self | clump of diopatra	transect	Polychaeta	26.68	3173	00:59:56:18	 	36.847485	-121.84478	2494583	3.14	2008-02-14 17:59:37.0	Ventana	33.819	00:59:42:24	9.858	Polychaeta				Animalia		Annelida					Eukaryota		V3173-01
comment | self | clump of diopatra	transect	Polychaeta	26.66	3173	00:59:58:17	 	36.847485	-121.84478	2494584	3.15	2008-02-14 17:59:39.0	Ventana	33.818	00:59:44:10	9.86	Polychaeta				Animalia		Annelida					Eukaryota		V3173-01
comment | self | clump of diopatra	transect	Polychaeta	25.54	3173	01:00:02:17	 	36.847485	-121.84478	2494585	3.15	2008-02-14 17:59:43.0	Ventana	33.818	00:59:48:00	9.86	Polychaeta				Animalia		Annelida					Eukaryota		V3173-01
comment | self | clump of diopatra	transect	Polychaeta	26.13	3173	01:00:06:17	 	36.847485	-121.84478	2494586	3.15	2008-02-14 17:59:47.0	Ventana	33.818	00:59:53:20	9.86	Polychaeta				Animalia		Annelida					Eukaryota		V3173-01
comment | self | clump of diopatra	transect	Polychaeta	26.51	3173	01:00:08:17	 	36.847485	-121.84478	2494587	3.15	2008-02-14 17:59:49.0	Ventana	33.818	00:59:54:13	9.86	Polychaeta				Animalia		Annelida					Eukaryota		V3173-01
near | benthos | nil	transect	Chrysaora fuscescens	26.54	3173	01:00:10:17	 	36.847485	-121.84478	2494588	3.15	2008-02-14 17:59:51.0	Ventana	33.818	00:59:56:05	9.86	Scyphozoa	Pelagiidae	Chrysaora		Animalia	Semaeostomeae	Cnidaria	Chrysaora fuscescens				Eukaryota		V3173-01
comment | self | clump of diopatra	transect	Polychaeta	26.31	3173	01:00:12:17	 	36.847485	-121.84478	2494589	3.15	2008-02-14 17:59:53.0	Ventana	33.817	00:59:58:10	9.864	Polychaeta				Animalia		Annelida					Eukaryota		V3173-01
comment | self | clump of diopatra	transect	Polychaeta	26.31	3173	01:00:12:17	 	36.847485	-121.84478	2494590	3.15	2008-02-14 17:59:53.0	Ventana	33.817	00:59:58:24	9.864	Polychaeta				Animalia		Annelida					Eukaryota		V3173-01
comment | self | clump of diopatra	transect	Polychaeta	26.01	3173	01:00:14:17	 	36.847485	-121.84478	2494591	3.15	2008-02-14 17:59:55.0	Ventana	33.817	01:00:00:12	9.864	Polychaeta				Animalia		Annelida					Eukaryota		V3173-01
comment | self | clump of diopatra	transect	Polychaeta	26.01	3173	01:00:14:17	 	36.847485	-121.84478	2494592	3.15	2008-02-14 17:59:55.0	Ventana	33.817	01:00:00:26	9.864	Polychaeta				Animalia		Annelida					Eukaryota		V3173-01
comment | self | clump of diopatra	transect	Polychaeta	26.1	3173	01:00:18:17	 	36.847485	-121.84478	2494593	3.15	2008-02-14 17:59:59.0	Ventana	33.817	01:00:03:25	9.864	Polychaeta				Animalia		Annelida					Eukaryota		V3173-01
comment | self | clump of diopatra	transect	Polychaeta	26.08	3173	01:00:20:16	 	36.847485	-121.84478	2494594	3.15	2008-02-14 18:00:01.0	Ventana	33.817	01:00:06:16	9.864	Polychaeta				Animalia		Annelida					Eukaryota		V3173-01
comment | self | clump of diopatra	transect	Polychaeta	26.08	3173	01:00:20:16	 	36.847485	-121.84478	2494595	3.15	2008-02-14 18:00:01.0	Ventana	33.817	01:00:07:17	9.864	Polychaeta				Animalia		Annelida					Eukaryota		V3173-01
comment | self | clump of diopatra	transect	Polychaeta	26.11	3173	01:00:22:16	 	36.847485	-121.84478	2494596	3.15	2008-02-14 18:00:03.0	Ventana	33.817	01:00:08:09	9.864	Polychaeta				Animalia		Annelida					Eukaryota		V3173-01
comment | self | clump of diopatra	transect	Polychaeta	26.14	3173	01:00:24:17	 	36.847485	-121.84478	2494597	3.15	2008-02-14 18:00:05.0	Ventana	33.817	01:00:11:02	9.864	Polychaeta				Animalia		Annelida					Eukaryota		V3173-01
comment | self | clump of diopatra	transect	Polychaeta	26.14	3173	01:00:24:17	 	36.847485	-121.84478	2494598	3.15	2008-02-14 18:00:05.0	Ventana	33.817	01:00:11:22	9.864	Polychaeta				Animalia		Annelida					Eukaryota		V3173-01
comment | self | clump of diopatra	transect	Polychaeta	26.44	3173	01:00:28:16	 	36.847485	-121.84478	2494599	3.14	2008-02-14 18:00:09.0	Ventana	33.82	01:00:15:08	9.856	Polychaeta				Animalia		Annelida					Eukaryota		V3173-01
comment | self | clump of diopatra	transect	Polychaeta	26.45	3173	01:00:30:16	 	36.847485	-121.84478	2494600	3.14	2008-02-14 18:00:11.0	Ventana	33.82	01:00:16:18	9.856	Polychaeta				Animalia		Annelida					Eukaryota		V3173-01
comment | self | clump of diopatra	transect	Polychaeta	26.36	3173	01:00:32:16	 	36.847485	-121.84478	2494601	3.14	2008-02-14 18:00:13.0	Ventana	33.82	01:00:18:10	9.856	Polychaeta				Animalia		Annelida					Eukaryota		V3173-01
comment | self | clump of diopatra	transect	Polychaeta	26.36	3173	01:00:32:16	 	36.847485	-121.84478	2494602	3.14	2008-02-14 18:00:13.0	Ventana	33.82	01:00:18:22	9.856	Polychaeta				Animalia		Annelida					Eukaryota		V3173-01
comment | self | clump of diopatra	transect	Polychaeta	25.82	3173	01:00:36:16	 	36.847485	-121.84478	2494603	3.14	2008-02-14 18:00:17.0	Ventana	33.82	01:00:22:11	9.856	Polychaeta				Animalia		Annelida					Eukaryota		V3173-01
comment | self | clump of diopatra	transect	Polychaeta	25.82	3173	01:00:36:16	 	36.847485	-121.84478	2494604	3.14	2008-02-14 18:00:17.0	Ventana	33.82	01:00:23:12	9.856	Polychaeta				Animalia		Annelida					Eukaryota		V3173-01
comment | self | clump of diopatra	transect	Polychaeta	26.22	3173	01:00:42:16	 	36.847485	-121.84478	2494605	3.13	2008-02-14 18:00:23.0	Ventana	33.825	01:00:30:00	9.849	Polychaeta				Animalia		Annelida					Eukaryota		V3173-01
comment | self | clump of diopatra	transect	Polychaeta	26.33	3173	01:00:46:16	 	36.847485	-121.84478	2494606	3.13	2008-02-14 18:00:27.0	Ventana	33.825	01:00:32:14	9.849	Polychaeta				Animalia		Annelida					Eukaryota		V3173-01
comment | self | clump of diopatra	transect	Polychaeta	26.33	3173	01:00:46:16	 	36.847485	-121.84478	2494607	3.13	2008-02-14 18:00:27.0	Ventana	33.825	01:00:33:07	9.849	Polychaeta				Animalia		Annelida					Eukaryota		V3173-01
comment | self | clump of diopatra	transect	Polychaeta	26.12	3173	01:00:50:16	 	36.847485	-121.84478	2494608	3.13	2008-02-14 18:00:31.0	Ventana	33.825	01:00:37:13	9.849	Polychaeta				Animalia		Annelida					Eukaryota		V3173-01
comment | self | clump of diopatra	transect	Polychaeta	25.83	3173	01:00:54:16	 	36.847485	-121.84478	2494609	3.13	2008-02-14 18:00:35.0	Ventana	33.825	01:00:40:08	9.849	Polychaeta				Animalia		Annelida					Eukaryota		V3173-01
water-quality | self | sediment-cloudy	cruise	water	25.43	3173	01:03:01:11	 	36.847485	-121.84478	2494611	3.19	2008-02-14 18:02:42.0	Ventana	33.805	01:02:47:22	9.891														V3173-01
contains | ripples | nil	cruise	sand	25.58	3173	01:03:07:25	http://search.mbari.org/ARCHIVE/frameGrabs/Ventana/images/3173/01_03_05_25.jpg	36.847485	-121.84478	2494612	3.2	2008-02-14 18:03:28.0	Ventana	33.805	01:03:05:25	9.894														V3173-02
comment | self | diopatra, population-quantity | self | 999	cruise	Polychaeta	25.58	3173	01:03:07:25	http://search.mbari.org/ARCHIVE/frameGrabs/Ventana/images/3173/01_03_05_25.jpg	36.847485	-121.84478	2494613	3.2	2008-02-14 18:03:28.0	Ventana	33.805	01:03:05:25	9.894	Polychaeta				Animalia		Annelida					Eukaryota		V3173-02
comment | self | diopatra, population-quantity | self | 999	cruise	Polychaeta	25.37	3173	01:03:40:09	 	36.847485	-121.84478	2494614	3.21	2008-02-14 18:04:00.0	Ventana	33.803	01:03:38:28	9.896	Polychaeta				Animalia		Annelida					Eukaryota		V3173-02
contains | ripples | nil	cruise	sand	25.58	3173	01:03:48:09	 	36.847485	-121.84478	2494615	3.21	2008-02-14 18:04:08.0	Ventana	33.802	01:03:47:16	9.899														V3173-02
population-quantity | self | 999	cruise	Asteroidea	25.37	3173	01:04:02:08	 	36.847485	-121.84478	2494616	3.21	2008-02-14 18:04:22.0	Ventana	33.802	01:04:01:17	9.899					Animalia		Echinodermata		Asteroidea			Eukaryota		V3173-02
contains | ripples | nil	cruise	sand	24.95	3173	01:04:30:08	 	36.847485	-121.84478	2494617	3.21	2008-02-14 18:04:51.0	Ventana	33.802	01:04:29:01	9.899														V3173-02
comment | self | diopatra, population-quantity | self | 999	cruise	Polychaeta	25.18	3173	01:04:42:08	 	36.847485	-121.84478	2494618	3.21	2008-02-14 18:05:03.0	Ventana	33.802	01:04:40:03	9.898	Polychaeta				Animalia		Annelida					Eukaryota		V3173-02
contains | ripples | nil	cruise	sand	24.68	3173	01:05:08:06	 	36.847485	-121.84478	2494619	3.21	2008-02-14 18:05:29.0	Ventana	33.802	01:05:07:25	9.899														V3173-02
comment | self | diopatra, population-quantity | self | 999	cruise	Polychaeta	24.32	3173	01:05:20:21	 	36.847485	-121.84478	2494620	3.22	2008-02-14 18:05:41.0	Ventana	33.802	01:05:19:01	9.9	Polychaeta				Animalia		Annelida					Eukaryota		V3173-02
water-quality | self | sediment-cloudy	cruise	water	23.72	3173	01:05:34:21	 	36.847485	-121.84478	2494621	3.21	2008-02-14 18:05:55.0	Ventana	33.802	01:05:33:03	9.9														V3173-02
water-quality | self | sediment-cloudy	stationary	water	25.08	3173	01:07:03:03	 	36.847485	-121.84478	2494622	3.21	2008-02-14 18:07:23.0	Ventana	33.801	01:07:00:21	9.902														V3173-02
contains | ripples | nil	stationary	sand	24.98	3173	01:07:09:03	 	36.847485	-121.84478	2494623	3.21	2008-02-14 18:07:29.0	Ventana	33.801	01:07:07:00	9.902														V3173-02
contains | ripples | nil	cruise	sand	25.07	3173	01:07:53:01	 	36.847485	-121.84478	2494624	3.21	2008-02-14 18:08:14.0	Ventana	33.802	01:07:52:13	9.9														V3173-02
comment | self | diopatra, population-quantity | self | 999	cruise	Polychaeta	25.1	3173	01:07:59:01	 	36.847485	-121.84478	2494625	3.21	2008-02-14 18:08:20.0	Ventana	33.802	01:07:57:09	9.9	Polychaeta				Animalia		Annelida					Eukaryota		V3173-02
population-quantity | self | 999	cruise	Asteroidea	24.94	3173	01:08:09:01	 	36.847485	-121.84478	2494626	3.21	2008-02-14 18:08:30.0	Ventana	33.802	01:08:08:14	9.897					Animalia		Echinodermata		Asteroidea			Eukaryota		V3173-02
comment | self | diopatra, population-quantity | self | 999	cruise	Polychaeta	24.88	3173	01:08:21:16	 	36.847485	-121.84478	2494627	3.2	2008-02-14 18:08:42.0	Ventana	33.807	01:08:20:00	9.887	Polychaeta				Animalia		Annelida					Eukaryota		V3173-02
contains | ripples | nil	cruise	sand	24.57	3173	01:08:31:15	 	36.847485	-121.84478	2494628	3.2	2008-02-14 18:08:52.0	Ventana	33.807	01:08:30:22	9.887														V3173-02
comment | self | diopatra, population-quantity | self | 999	cruise	Polychaeta	25.32	3173	01:08:59:14	 	36.847485	-121.84478	2494629	3.16	2008-02-14 18:09:20.0	Ventana	33.819	01:08:57:08	9.858	Polychaeta				Animalia		Annelida					Eukaryota		V3173-02
contains | ripples | nil	cruise	sand	26.04	3173	01:09:05:14	 	36.847485	-121.84478	2494630	3.15	2008-02-14 18:09:26.0	Ventana	33.821	01:09:03:24	9.856														V3173-02
comment | self | diopatra, population-quantity | self | 999	cruise	Polychaeta	25.32	3173	01:10:05:27	 	36.847485	-121.84478	2494631	3.13	2008-02-14 18:10:26.0	Ventana	33.826	01:10:04:21	9.845	Polychaeta				Animalia		Annelida					Eukaryota		V3173-02
contains | ripples | nil	cruise	sand	26.08	3173	01:10:17:27	 	36.847485	-121.84478	2494632	3.13	2008-02-14 18:10:38.0	Ventana	33.825	01:10:15:10	9.846														V3173-02
comment | self | diopatra, population-quantity | self | 999	cruise	Polychaeta	25.59	3173	01:11:03:25	 	36.847485	-121.84477	2494634	3.13	2008-02-14 18:11:25.0	Ventana	33.825	01:11:02:21	9.845	Polychaeta				Animalia		Annelida					Eukaryota		V3173-02
contains | ripples | nil	cruise	sand	25.41	3173	01:11:09:25	 	36.847485	-121.84477	2494635	3.13	2008-02-14 18:11:31.0	Ventana	33.825	01:11:09:22	9.845														V3173-02
population-quantity | self | 999	cruise	Asteroidea	25.37	3173	01:11:07:25	 	36.847485	-121.84477	2494636	3.13	2008-02-14 18:11:29.0	Ventana	33.825	01:11:06:10	9.845					Animalia		Echinodermata		Asteroidea			Eukaryota		V3173-02
contains | ripples | nil	cruise	sand	25.72	3173	01:11:17:25	 	36.847485	-121.84477	2494637	3.13	2008-02-14 18:11:39.0	Ventana	33.826	01:11:16:27	9.844														V3173-02
near | benthos | nil	cruise	Chrysaora fuscescens	25.07	3173	01:11:37:24	 	36.847485	-121.84477	2494638	3.13	2008-02-14 18:11:59.0	Ventana	33.828	01:11:35:28	9.84	Scyphozoa	Pelagiidae	Chrysaora		Animalia	Semaeostomeae	Cnidaria	Chrysaora fuscescens				Eukaryota		V3173-02
comment | self | diopatra, population-quantity | self | 999	cruise	Polychaeta	25.52	3173	01:11:48:09	 	36.847485	-121.84477	2494639	3.14	2008-02-14 18:12:09.0	Ventana	33.823	01:11:47:14	9.848	Polychaeta				Animalia		Annelida					Eukaryota		V3173-02
contains | ripples | nil	cruise	sand	25.38	3173	01:11:58:09	 	36.84748	-121.84477	2494640	3.14	2008-02-14 18:12:19.0	Ventana	33.823	01:11:56:00	9.848														V3173-02
population-quantity | self | 999	cruise	Asteroidea	25.3	3173	01:12:12:09	 	36.84748	-121.84477	2494641	3.14	2008-02-14 18:12:33.0	Ventana	33.824	01:12:10:00	9.848					Animalia		Echinodermata		Asteroidea			Eukaryota		V3173-02
near | benthos | nil	cruise	Chrysaora fuscescens	24.97	3173	01:12:18:08	 	36.84748	-121.84477	2494642	3.14	2008-02-14 18:12:39.0	Ventana	33.823	01:12:17:10	9.849	Scyphozoa	Pelagiidae	Chrysaora		Animalia	Semaeostomeae	Cnidaria	Chrysaora fuscescens				Eukaryota		V3173-02
contains | ripples | nil	cruise	sand	24.7	3173	01:12:50:07	http://search.mbari.org/ARCHIVE/frameGrabs/Ventana/images/3173/01_12_49_22.jpg	36.847477	-121.844765	2494644	3.13	2008-02-14 18:13:11.0	Ventana	33.825	01:12:49:22	9.842														V3173-02
comment | self | diopatra, population-quantity | self | 999	cruise	Polychaeta	24.7	3173	01:12:50:07	http://search.mbari.org/ARCHIVE/frameGrabs/Ventana/images/3173/01_12_49_22.jpg	36.847477	-121.844765	2494645	3.13	2008-02-14 18:13:11.0	Ventana	33.825	01:12:49:22	9.842	Polychaeta				Animalia		Annelida					Eukaryota		V3173-02
comment | self | diopatra, population-quantity | self | 999	cruise	Polychaeta	25.0	3173	01:13:24:21	 	36.847466	-121.84475	2494646	3.13	2008-02-14 18:13:45.0	Ventana	33.827	01:13:23:10	9.838	Polychaeta				Animalia		Annelida					Eukaryota		V3173-02
contains | ripples | nil	cruise	sand	25.02	3173	01:13:32:21	 	36.847466	-121.84475	2494647	3.13	2008-02-14 18:13:53.0	Ventana	33.827	01:13:31:14	9.839														V3173-02
comment | self | diopatra, population-quantity | self | 999	cruise	Polychaeta	24.96	3173	01:14:10:20	 	36.847443	-121.84471	2494648	3.13	2008-02-14 18:14:32.0	Ventana	33.825	01:14:08:08	9.841	Polychaeta				Animalia		Annelida					Eukaryota		V3173-02
contains | ripples | nil	cruise	sand	25.3	3173	01:14:14:20	 	36.84744	-121.84471	2494649	3.13	2008-02-14 18:14:36.0	Ventana	33.825	01:14:14:01	9.841														V3173-02
near | benthos | nil	cruise	Chrysaora fuscescens	24.67	3173	01:15:15:03	 	36.847374	-121.84461	2494650	3.14	2008-02-14 18:15:36.0	Ventana	33.825	01:15:12:24	9.839	Scyphozoa	Pelagiidae	Chrysaora		Animalia	Semaeostomeae	Cnidaria	Chrysaora fuscescens				Eukaryota		V3173-02
contains | ripples | nil	cruise	sand	25.14	3173	01:15:21:03	http://search.mbari.org/ARCHIVE/frameGrabs/Ventana/images/3173/01_15_19_12.jpg	36.847366	-121.8446	2494652	3.14	2008-02-14 18:15:42.0	Ventana	33.822	01:15:19:12	9.843														V3173-02
comment | self | diopatra, population-quantity | self | 999	cruise	Polychaeta	25.14	3173	01:15:21:03	http://search.mbari.org/ARCHIVE/frameGrabs/Ventana/images/3173/01_15_19_12.jpg	36.847366	-121.8446	2494653	3.14	2008-02-14 18:15:42.0	Ventana	33.822	01:15:19:12	9.843	Polychaeta				Animalia		Annelida					Eukaryota		V3173-02
contains | ripples | nil	cruise	sand	24.84	3173	01:17:07:14	 	36.847134	-121.84425	2494654	3.15	2008-02-14 18:17:28.0	Ventana	33.823	01:17:05:17	9.837														V3173-02
comment | self | diopatra, population-quantity | self | 999	cruise	Polychaeta	24.84	3173	01:17:07:14	 	36.847134	-121.84425	2494655	3.15	2008-02-14 18:17:28.0	Ventana	33.823	01:17:05:17	9.837	Polychaeta				Animalia		Annelida					Eukaryota		V3173-02
comment | self | diopatra, population-quantity | self | 999	cruise	Polychaeta	24.3	3173	01:21:46:21	http://search.mbari.org/ARCHIVE/frameGrabs/Ventana/images/3173/01_21_45_27.jpg	36.845753	-121.84228	2494657	3.32	2008-02-14 18:22:08.0	Ventana	33.786	01:21:45:27	9.95	Polychaeta				Animalia		Annelida					Eukaryota		V3173-02
contains | ripples | nil	cruise	sand	24.3	3173	01:21:46:21	http://search.mbari.org/ARCHIVE/frameGrabs/Ventana/images/3173/01_21_45_27.jpg	36.845753	-121.84228	2494658	3.32	2008-02-14 18:22:08.0	Ventana	33.786	01:21:45:27	9.95														V3173-02
contains | ripples | nil	cruise	sand	24.61	3173	01:26:05:28	http://search.mbari.org/ARCHIVE/frameGrabs/Ventana/images/3173/01_26_03_25.jpg	36.844498	-121.8408	2494660	3.26	2008-02-14 18:26:27.0	Ventana	33.799	01:26:03:25	9.979														V3173-02
comment | self | diopatra, population-quantity | self | 999	cruise	Polychaeta	24.61	3173	01:26:05:28	http://search.mbari.org/ARCHIVE/frameGrabs/Ventana/images/3173/01_26_03_25.jpg	36.844498	-121.8408	2494661	3.26	2008-02-14 18:26:27.0	Ventana	33.799	01:26:03:25	9.979	Polychaeta				Animalia		Annelida					Eukaryota		V3173-02
contains | ripples | nil	cruise	sand	25.07	3173	01:31:39:02	 	36.84262	-121.838875	2494662	3.18	2008-02-14 18:32:01.0	Ventana	33.822	01:31:37:04	9.902														V3173-02
comment | self | diopatra, population-quantity | self | 999	cruise	Polychaeta	25.07	3173	01:31:39:02	 	36.84262	-121.838875	2494663	3.18	2008-02-14 18:32:01.0	Ventana	33.822	01:31:37:04	9.902	Polychaeta				Animalia		Annelida					Eukaryota		V3173-02
contains | ripples | nil	cruise	sand	23.91	3173	01:43:24:11	 	36.83851	-121.834145	2494664	3.23	2008-02-14 18:43:47.0	Ventana	33.807	01:43:23:04	9.942														V3173-02
comment | self | diopatra, population-quantity | self | 999	cruise	Polychaeta	23.91	3173	01:43:24:11	 	36.83851	-121.834145	2494665	3.23	2008-02-14 18:43:47.0	Ventana	33.807	01:43:23:04	9.942	Polychaeta				Animalia		Annelida					Eukaryota		V3173-02
contains | ripples | nil	cruise	sand	24.17	3173	01:47:15:19	 	36.836853	-121.83216	2494666	3.3	2008-02-14 18:47:38.0	Ventana	33.794	01:47:14:13	10.005														V3173-02
comment | self | diopatra, population-quantity | self | 999	cruise	Polychaeta	24.17	3173	01:47:15:19	 	36.836853	-121.83216	2494667	3.3	2008-02-14 18:47:38.0	Ventana	33.794	01:47:14:13	10.005	Polychaeta				Animalia		Annelida					Eukaryota		V3173-02
contains | ripples | nil	cruise	sand	23.49	3173	01:54:09:06	 	36.834496	-121.82902	2494668	3.19	2008-02-14 18:54:32.0	Ventana	33.821	01:54:07:19	9.901														V3173-02
comment | self | diopatra, population-quantity | self | 999	cruise	Polychaeta	23.49	3173	01:54:09:06	 	36.834496	-121.82902	2494669	3.19	2008-02-14 18:54:32.0	Ventana	33.821	01:54:07:19	9.901	Polychaeta				Animalia		Annelida					Eukaryota		V3173-02
contains | ripples | nil	cruise	sand	23.87	3173	02:02:55:05	 	36.83194	-121.826385	2494670	3.28	2008-02-14 19:03:19.0	Ventana	33.799	02:02:53:00	9.928														V3173-02
comment | self | diopatra, population-quantity | self | 999	cruise	Polychaeta	23.87	3173	02:02:55:05	 	36.83194	-121.826385	2494671	3.28	2008-02-14 19:03:19.0	Ventana	33.799	02:02:53:00	9.928	Polychaeta				Animalia		Annelida					Eukaryota		V3173-02
contains | ripples | nil	cruise	sand	23.66	3173	02:07:05:05	http://search.mbari.org/ARCHIVE/frameGrabs/Ventana/images/3173/02_07_01_21.jpg	36.830494	-121.8248	20024245	3.23	2008-02-14 19:07:56.0	Ventana	33.807	02:07:01:21	9.936														V3173-03
contains | ripples | nil	cruise	sand	24.11	3173	02:03:54:11	 	36.83149	-121.8259	2494672	3.23	2008-02-14 19:04:45.0	Ventana	33.81	02:03:50:25	9.922														V3173-03
comment | self | diopatra, population-quantity | self | 999	cruise	Polychaeta	24.15	3173	02:04:00:11	 	36.83146	-121.82586	2494673	3.23	2008-02-14 19:04:51.0	Ventana	33.81	02:03:56:04	9.922	Polychaeta				Animalia		Annelida					Eukaryota		V3173-03
comment | self | diopatra, population-quantity | self | 999	cruise	Polychaeta	24.47	3173	02:04:38:09	 	36.831257	-121.82564	2494674	3.22	2008-02-14 19:05:30.0	Ventana	33.81	02:04:36:00	9.911	Polychaeta				Animalia		Annelida					Eukaryota		V3173-03
contains | ripples | nil	cruise	sand	24.03	3173	02:04:44:09	 	36.831226	-121.82561	2494675	3.22	2008-02-14 19:05:36.0	Ventana	33.81	02:04:42:07	9.911														V3173-03
comment | self | diopatra, population-quantity | self | 999	cruise	Polychaeta	24.23	3173	02:05:30:23	 	36.83098	-121.82534	2494676	3.2	2008-02-14 19:06:22.0	Ventana	33.815	02:05:26:11	9.88	Polychaeta				Animalia		Annelida					Eukaryota		V3173-03
contains | ripples | nil	cruise	sand	24.38	3173	02:05:44:22	 	36.830902	-121.82526	2494677	3.21	2008-02-14 19:06:36.0	Ventana	33.813	02:05:40:15	9.897														V3173-03
contains | ripples | nil	cruise	sand	24.63	3173	02:07:25:04	http://search.mbari.org/ARCHIVE/frameGrabs/Ventana/images/3173/02_07_22_13.jpg	36.8304	-121.82469	2494679	3.22	2008-02-14 19:08:16.0	Ventana	33.809	02:07:22:13	9.924														V3173-03
comment | self | diopatra, population-quantity | self | 999	cruise	Polychaeta	24.63	3173	02:07:25:04	http://search.mbari.org/ARCHIVE/frameGrabs/Ventana/images/3173/02_07_22_13.jpg	36.8304	-121.82469	2494680	3.22	2008-02-14 19:08:16.0	Ventana	33.809	02:07:22:13	9.924	Polychaeta				Animalia		Annelida					Eukaryota		V3173-03
contains | ripples | nil	cruise	sand	22.49	3173	02:24:17:03	 	36.82591	-121.819305	2494681	3.43	2008-02-14 19:25:10.0	Ventana	33.756	02:24:14:23	9.983														V3173-03
comment | self | diopatra, population-quantity | self | 999	cruise	Polychaeta	22.49	3173	02:24:17:03	 	36.82591	-121.819305	2494682	3.43	2008-02-14 19:25:10.0	Ventana	33.756	02:24:14:23	9.983	Polychaeta				Animalia		Annelida					Eukaryota		V3173-03
water-quality | self | sediment-cloudy	cruise	water	22.46	3173	02:26:39:29	 	36.825607	-121.818954	2494683	3.13	2008-02-14 19:27:32.0	Ventana	33.825	02:26:35:22	9.83														V3173-03
calibrated | self | lower 2 lasers are 23 cm apart	launch	lasers	 	3173	 	http://search.mbari.org/ARCHIVE/frameGrabs/Ventana/images/3173/00_03_36_21.jpg	 	 	20024220	 	 	Ventana	 	00:03:36:21	 														V3173-01
population-quantity | self | 999, comment | self | clumps of diopatra	cruise	Polychaeta	31.15	3173	00:12:02:01	http://search.mbari.org/ARCHIVE/frameGrabs/Ventana/images/3173/00_11_48_21.jpg	36.85374	-121.857475	20024228	3.26	2008-02-14 17:11:39.0	Ventana	33.809	00:11:48:21	9.903	Polychaeta				Animalia		Annelida					Eukaryota		V3173-01
population-quantity | self | 999, comment | self | clumps of diopatra	cruise	Polychaeta	28.14	3173	00:32:06:24	 	36.851505	-121.8526	20024230	3.24	2008-02-14 17:31:46.0	Ventana	33.801	00:31:52:14	9.906	Polychaeta				Animalia		Annelida					Eukaryota		V3173-01
population-quantity | self | 999, comment | self | clumps of diopatra	cruise	Polychaeta	27.56	3173	00:33:13:07	 	36.851353	-121.85224	20024231	2.92	2008-02-14 17:32:52.0	Ventana	33.802	00:32:58:12	9.902	Polychaeta				Animalia		Annelida					Eukaryota		V3173-01
comment | self | Start I  transect A (over cable)	starttransect	physical object	25.58	3173	00:46:30:28	 	36.848713	-121.846725	20024232	2.11	2008-02-14 17:46:10.0	Ventana	33.803	00:46:16:03	9.899														V3173-01
comment | self | end I  transect A (over cable)	endtransect	physical object	25.81	3173	00:51:30:03	 	36.847527	-121.84484	20024233	3.21	2008-02-14 17:51:10.0	Ventana	33.802	00:51:16:08	9.9														V3173-01
comment | self | Start I  transect B	starttransect	physical object	25.82	3173	00:54:02:28	 	36.847485	-121.84478	20024237	3.18	2008-02-14 17:53:43.0	Ventana	33.807	00:53:49:19	9.888														V3173-01
comment | self | starting a diagonal across the cable route	cruise	physical object	26.28	3173	01:01:36:29	 	36.847485	-121.84478	20024239	3.15	2008-02-14 18:01:17.0	Ventana	33.82	01:01:24:04	9.856														V3173-01
comment | self | diopatra, population-quantity | self | 999	cruise	Polychaeta	23.45	3173	01:50:46:13	http://search.mbari.org/ARCHIVE/frameGrabs/Ventana/images/3173/01_50_45_09.jpg	36.836086	-121.83117	20024244	3.23	2008-02-14 18:51:09.0	Ventana	33.807	01:50:45:09	9.988	Polychaeta				Animalia		Annelida					Eukaryota		V3173-02
comment | self | diopatra, population-quantity | self | 999	cruise	Polychaeta	23.66	3173	02:07:05:05	http://search.mbari.org/ARCHIVE/frameGrabs/Ventana/images/3173/02_07_01_21.jpg	36.830494	-121.8248	20024247	3.23	2008-02-14 19:07:56.0	Ventana	33.807	02:07:01:21	9.936	Polychaeta				Animalia		Annelida					Eukaryota		V3173-03
 	transect	Asteroidea	25.88	3173	00:57:52:06	 	36.847485	-121.84478	2494526	3.16	2008-02-14 17:57:32.0	Ventana	33.815	00:57:38:21	9.868					Animalia		Echinodermata		Asteroidea			Eukaryota		V3173-01
 	cruise	sand	23.45	3173	01:50:46:13	http://search.mbari.org/ARCHIVE/frameGrabs/Ventana/images/3173/01_50_45_09.jpg	36.836086	-121.83117	20024242	3.23	2008-02-14 18:51:09.0	Ventana	33.807	01:50:45:09	9.988														V3173-02
 	cruise	Asteroidea	26.52	3173	00:39:42:25	 	36.849815	-121.84931	2494313	3.21	2008-02-14 17:39:22.0	Ventana	33.804	00:39:28:19	9.898					Animalia		Echinodermata		Asteroidea			Eukaryota		V3173-01
 	descend	water	 	3173	 	 	 	 	20024223	 	 	Ventana	 	00:06:09:01	 														V3173-01
 	transect	Asteroidea	26.09	3173	00:48:53:23	 	36.847828	-121.84529	2494378	3.21	2008-02-14 17:48:33.0	Ventana	33.802	00:48:39:19	9.899					Animalia		Echinodermata		Asteroidea			Eukaryota		V3173-01
 	transect	Asteroidea	26.51	3173	00:57:29:22	 	36.847485	-121.84478	2494516	3.16	2008-02-14 17:57:10.0	Ventana	33.813	00:57:15:24	9.873					Animalia		Echinodermata		Asteroidea			Eukaryota		V3173-01
 	endtransect	object	25.49	3173	00:47:39:10	 	36.848118	-121.845726	2494361	3.21	2008-02-14 17:47:19.0	Ventana	33.803	00:47:25:20	9.9														V3173-01
 	endtransect	object	26.6	3173	01:01:03:01	 	36.847485	-121.84478	2494610	3.14	2008-02-14 18:00:43.0	Ventana	33.821	01:00:48:20	9.855														V3173-01
 	launch	water	 	3173	 	 	 	 	20024222	 	 	Ventana	 	00:06:01:01	 														V3173-01
 	descend	Chrysaora fuscescens	21.77	3173	00:10:43:18	http://search.mbari.org/ARCHIVE/frameGrabs/Ventana/images/3173/00_10_29_14.jpg	36.853737	-121.85747	2494231	3.97	2008-02-14 17:10:21.0	Ventana	33.683	00:10:29:14	10.245	Scyphozoa	Pelagiidae	Chrysaora		Animalia	Semaeostomeae	Cnidaria	Chrysaora fuscescens				Eukaryota		V3173-01
 	transect	Asteroidea	26.09	3173	00:48:53:23	 	36.847828	-121.84529	2494379	3.21	2008-02-14 17:48:33.0	Ventana	33.802	00:48:39:19	9.899					Animalia		Echinodermata		Asteroidea			Eukaryota		V3173-01
 	transect	Asteroidea	26.54	3173	00:55:57:10	 	36.847485	-121.84478	2494473	3.14	2008-02-14 17:55:38.0	Ventana	33.82	00:55:43:24	9.856					Animalia		Echinodermata		Asteroidea			Eukaryota		V3173-01
 	starttransect	object	26.02	3173	00:48:25:09	 	36.84793	-121.84544	2494362	3.21	2008-02-14 17:48:05.0	Ventana	33.802	00:48:12:22	9.9														V3173-01
 	launch	Point Lobos	 	3173	 	 	 	 	20024221	 	 	Ventana	 	00:04:35:04	 														V3173-01
 	transect	Asteroidea	25.76	3173	00:55:39:10	 	36.847485	-121.84478	2494465	3.17	2008-02-14 17:55:20.0	Ventana	33.814	00:55:25:23	9.869					Animalia		Echinodermata		Asteroidea			Eukaryota		V3173-01
 	transect	Asteroidea	26.03	3173	00:57:05:22	 	36.847485	-121.84478	2494502	3.16	2008-02-14 17:56:46.0	Ventana	33.813	00:56:51:26	9.871					Animalia		Echinodermata		Asteroidea			Eukaryota		V3173-01
 	ascend	water	 	3173	 	 	 	 	20024248	 	 	Ventana	 	02:37:06:27	 														V3173-03
 	cruise	ripples	31.15	3173	00:12:02:01	http://search.mbari.org/ARCHIVE/frameGrabs/Ventana/images/3173/00_11_48_21.jpg	36.85374	-121.857475	20024229	3.26	2008-02-14 17:11:39.0	Ventana	33.809	00:11:48:21	9.903														V3173-01
 	transect	Asteroidea	26.27	3173	00:59:40:18	 	36.847485	-121.84478	2494575	3.15	2008-02-14 17:59:21.0	Ventana	33.82	00:59:27:12	9.856					Animalia		Echinodermata		Asteroidea			Eukaryota		V3173-01
 	transect	Asteroidea	26.03	3173	00:57:05:22	 	36.847485	-121.84478	2494503	3.16	2008-02-14 17:56:46.0	Ventana	33.813	00:56:51:26	9.871					Animalia		Echinodermata		Asteroidea			Eukaryota		V3173-01
 	launch	lasers	 	3173	 	http://search.mbari.org/ARCHIVE/frameGrabs/Ventana/images/3173/00_03_27_21.jpg	 	 	20024219	 	 	Ventana	 	00:03:27:21	 														V3173-01
 	cruise	Asteroidea	26.21	3173	00:43:28:03	 	36.848972	-121.84755	2494327	3.22	2008-02-14 17:43:08.0	Ventana	33.801	00:43:13:09	9.904					Animalia		Echinodermata		Asteroidea			Eukaryota		V3173-01
 	launch	Point Lobos	 	3173	 	 	 	 	2494227	 	 	Ventana	 	00:00:10:01	 														V3173-01
 	cruise	Asteroidea	25.45	3173	01:10:21:27	 	36.847485	-121.84478	2494633	3.13	2008-02-14 18:10:42.0	Ventana	33.825	01:10:20:05	9.846					Animalia		Echinodermata		Asteroidea			Eukaryota		V3173-02
 	transect	Asteroidea	25.84	3173	00:46:36:27	 	36.848713	-121.84671	2494338	2.11	2008-02-14 17:46:16.0	Ventana	33.803	00:46:23:00	9.899					Animalia		Echinodermata		Asteroidea			Eukaryota		V3173-01
 	cruise	sand	31.15	3173	00:12:02:01	http://search.mbari.org/ARCHIVE/frameGrabs/Ventana/images/3173/00_11_48_21.jpg	36.85374	-121.857475	20024227	3.26	2008-02-14 17:11:39.0	Ventana	33.809	00:11:48:21	9.903														V3173-01
 	transect	Asteroidea	26.27	3173	00:57:46:06	 	36.847485	-121.84478	2494522	3.16	2008-02-14 17:57:26.0	Ventana	33.815	00:57:32:01	9.868					Animalia		Echinodermata		Asteroidea			Eukaryota		V3173-01
 	cruise	Asteroidea	26.39	3173	00:39:04:26	 	36.849983	-121.84963	2494310	3.21	2008-02-14 17:38:44.0	Ventana	33.803	00:38:51:10	9.897					Animalia		Echinodermata		Asteroidea			Eukaryota		V3173-01
 	launch	lasers	 	3173	 	http://search.mbari.org/ARCHIVE/frameGrabs/Ventana/images/3173/00_02_36_22.jpg	 	 	20024217	 	 	Ventana	 	00:02:36:22	 														V3173-01
 	cruise	benthos	30.67	3173	00:11:33:17	 	36.853737	-121.85747	20024226	3.34	2008-02-14 17:11:11.0	Ventana	33.794	00:11:20:06	9.96														V3173-01
 	launch	Point Lobos	 	3173	 	 	 	 	2494228	 	 	Ventana	 	00:00:49:25	 														V3173-01
 	transect	Asteroidea	25.84	3173	00:57:48:07	 	36.847485	-121.84478	2494523	3.16	2008-02-14 17:57:28.0	Ventana	33.815	00:57:33:12	9.868					Animalia		Echinodermata		Asteroidea			Eukaryota		V3173-01
 	cruise	Asteroidea	26.13	3173	00:42:17:20	 	36.849224	-121.8481	2494322	3.22	2008-02-14 17:41:57.0	Ventana	33.802	00:42:04:11	9.903					Animalia		Echinodermata		Asteroidea			Eukaryota		V3173-01
 	transect	Asteroidea	25.94	3173	00:49:29:21	 	36.847717	-121.84513	2494395	3.21	2008-02-14 17:49:10.0	Ventana	33.803	00:49:16:21	9.899					Animalia		Echinodermata		Asteroidea			Eukaryota		V3173-01
 	cruise	ripples	23.45	3173	01:50:46:13	http://search.mbari.org/ARCHIVE/frameGrabs/Ventana/images/3173/01_50_45_09.jpg	36.836086	-121.83117	20024243	3.23	2008-02-14 18:51:09.0	Ventana	33.807	01:50:45:09	9.988														V3173-02
 	cruise	Asteroidea	25.54	3173	00:53:58:28	 	36.847485	-121.84478	2494423	3.18	2008-02-14 17:53:39.0	Ventana	33.807	00:53:44:09	9.888					Animalia		Echinodermata		Asteroidea			Eukaryota		V3173-01
 	transect	Asteroidea	25.68	3173	00:46:40:27	 	36.84871	-121.846695	2494340	2.11	2008-02-14 17:46:21.0	Ventana	33.803	00:46:26:17	9.899					Animalia		Echinodermata		Asteroidea			Eukaryota		V3173-01
 	transect	Asteroidea	25.84	3173	00:57:48:07	 	36.847485	-121.84478	2494524	3.16	2008-02-14 17:57:28.0	Ventana	33.815	00:57:34:08	9.868					Animalia		Echinodermata		Asteroidea			Eukaryota		V3173-01
 	descend	water	 	3173	 	 	 	 	20024224	 	 	Ventana	 	00:08:14:12	 														V3173-01
 	launch	Point Lobos	 	3173	 	 	 	 	2494229	 	 	Ventana	 	00:05:10:20	 														V3173-01
